Wetterdaten: Freitag, 17.10.2014
Datum Zeit Temp. Aussen +5cm Feuchte Auss Luftdruck Regen Sonnenschein Regendauer Solar Windben
17.10.2014 00:00 13,5 C 12,2 C 93 % 1007,2 hPa 0,0 l/m 0 min 0 min 0 W/m 12,6 km/h (3 Bft)
17.10.2014 00:02 13,5 C 12,2 C 93 % 1007,2 hPa 0,0 l/m 0 min 0 min 0 W/m 6,3 km/h (2 Bft)
17.10.2014 00:05 13,6 C 12,2 C 93 % 1007,2 hPa 0,0 l/m 0 min 0 min 0 W/m 10,5 km/h (2 Bft)
17.10.2014 00:06 13,6 C 12,2 C 93 % 1007,2 hPa 0,0 l/m 0 min 0 min 0 W/m 8,4 km/h (2 Bft)
17.10.2014 00:08 13,6 C 12,2 C 93 % 1007,2 hPa 0,0 l/m 0 min 0 min 0 W/m 10,5 km/h (2 Bft)
17.10.2014 00:10 13,6 C 12,2 C 93 % 1007,1 hPa 0,0 l/m 0 min 0 min 0 W/m 12,6 km/h (3 Bft)
17.10.2014 00:12 13,6 C 12,2 C 93 % 1007,1 hPa 0,0 l/m 0 min 0 min 0 W/m 12,6 km/h (3 Bft)
17.10.2014 00:14 13,6 C 12,2 C 93 % 1007,1 hPa 0,0 l/m 0 min 0 min 0 W/m 8,4 km/h (2 Bft)
17.10.2014 00:16 13,6 C 12,2 C 93 % 1007,1 hPa 0,0 l/m 0 min 0 min 0 W/m 12,6 km/h (3 Bft)
17.10.2014 00:18 13,6 C 12,2 C 93 % 1007,1 hPa 0,0 l/m 0 min 0 min 0 W/m 10,5 km/h (2 Bft)
17.10.2014 00:20 13,6 C 12,2 C 93 % 1007,1 hPa 0,0 l/m 0 min 0 min 0 W/m 8,4 km/h (2 Bft)
17.10.2014 00:22 13,6 C 12,2 C 94 % 1007,1 hPa 0,0 l/m 0 min 0 min 0 W/m 12,6 km/h (3 Bft)
17.10.2014 00:24 13,6 C 12,2 C 94 % 1007,1 hPa 0,0 l/m 0 min 0 min 0 W/m 10,5 km/h (2 Bft)
17.10.2014 00:26 13,6 C 12,2 C 94 % 1007,1 hPa 0,0 l/m 0 min 0 min 0 W/m 10,5 km/h (2 Bft)
17.10.2014 00:28 13,6 C 12,2 C 94 % 1007,0 hPa 0,0 l/m 0 min 0 min 0 W/m 6,3 km/h (2 Bft)
17.10.2014 00:30 13,6 C 12,2 C 94 % 1007,1 hPa 0,0 l/m 0 min 0 min 0 W/m 8,4 km/h (2 Bft)
17.10.2014 00:32 13,7 C 12,2 C 94 % 1007,1 hPa 0,0 l/m 0 min 0 min 0 W/m 10,5 km/h (2 Bft)
17.10.2014 00:34 13,7 C 12,2 C 94 % 1007,1 hPa 0,0 l/m 0 min 0 min 0 W/m 8,4 km/h (2 Bft)
17.10.2014 00:36 13,7 C 12,2 C 94 % 1007,0 hPa 0,0 l/m 0 min 0 min 0 W/m 8,4 km/h (2 Bft)
17.10.2014 00:38 13,7 C 12,2 C 94 % 1007,0 hPa 0,0 l/m 0 min 0 min 0 W/m 8,4 km/h (2 Bft)
17.10.2014 00:40 13,7 C 12,2 C 94 % 1007,1 hPa 0,0 l/m 0 min 0 min 0 W/m 10,5 km/h (2 Bft)
17.10.2014 00:42 13,7 C 12,2 C 94 % 1007,1 hPa 0,0 l/m 0 min 0 min 0 W/m 6,3 km/h (2 Bft)
17.10.2014 00:44 13,7 C 12,2 C 94 % 1007,0 hPa 0,0 l/m 0 min 0 min 0 W/m 10,5 km/h (2 Bft)
17.10.2014 00:46 13,7 C 12,2 C 94 % 1007,0 hPa 0,0 l/m 0 min 0 min 0 W/m 10,5 km/h (2 Bft)
17.10.2014 00:48 13,7 C 12,2 C 94 % 1007,0 hPa 0,0 l/m 0 min 0 min 0 W/m 4,2 km/h (1 Bft)
17.10.2014 00:50 13,8 C 12,2 C 94 % 1007,0 hPa 0,0 l/m 0 min 0 min 0 W/m 6,3 km/h (2 Bft)
17.10.2014 00:52 13,7 C 12,2 C 94 % 1006,9 hPa 0,0 l/m 0 min 0 min 0 W/m 4,2 km/h (1 Bft)
17.10.2014 00:54 13,8 C 12,2 C 94 % 1007,0 hPa 0,0 l/m 0 min 0 min 0 W/m 6,3 km/h (2 Bft)
17.10.2014 00:56 13,8 C 12,2 C 94 % 1007,0 hPa 0,0 l/m 0 min 0 min 0 W/m 10,5 km/h (2 Bft)
17.10.2014 00:58 13,8 C 12,2 C 94 % 1007,0 hPa 0,0 l/m 0 min 0 min 0 W/m 8,4 km/h (2 Bft)
17.10.2014 01:00 13,8 C 12,2 C 94 % 1007,0 hPa 0,0 l/m 0 min 0 min 0 W/m 6,3 km/h (2 Bft)
17.10.2014 01:02 13,8 C 12,2 C 94 % 1007,1 hPa 0,0 l/m 0 min 0 min 0 W/m 10,5 km/h (2 Bft)
17.10.2014 01:04 13,8 C 12,2 C 94 % 1007,1 hPa 0,0 l/m 0 min 0 min 0 W/m 12,6 km/h (3 Bft)
17.10.2014 01:06 13,8 C 12,2 C 94 % 1007,3 hPa 0,0 l/m 0 min 0 min 0 W/m 12,6 km/h (3 Bft)
17.10.2014 01:08 13,8 C 12,8 C 94 % 1007,3 hPa 0,0 l/m 0 min 2 min 0 W/m 18,8 km/h (3 Bft)
17.10.2014 01:10 13,9 C 12,2 C 94 % 1007,2 hPa 0,0 l/m 0 min 2 min 0 W/m 20,9 km/h (4 Bft)
17.10.2014 01:12 13,9 C 12,2 C 94 % 1007,2 hPa 0,0 l/m 0 min 2 min 0 W/m 14,6 km/h (3 Bft)
17.10.2014 01:14 13,9 C 12,2 C 94 % 1007,2 hPa 0,0 l/m 0 min 2 min 0 W/m 12,6 km/h (3 Bft)
17.10.2014 01:16 13,9 C 12,2 C 94 % 1007,2 hPa 0,0 l/m 0 min 2 min 0 W/m 10,5 km/h (2 Bft)
17.10.2014 01:18 14,0 C 12,2 C 94 % 1007,2 hPa 0,0 l/m 0 min 0 min 0 W/m 8,4 km/h (2 Bft)
17.10.2014 01:20 14,0 C 12,2 C 94 % 1007,2 hPa 0,0 l/m 0 min 0 min 0 W/m 10,5 km/h (2 Bft)
17.10.2014 01:22 14,0 C 12,2 C 94 % 1007,3 hPa 0,0 l/m 0 min 0 min 0 W/m 10,5 km/h (2 Bft)
17.10.2014 01:24 14,1 C 12,2 C 94 % 1007,2 hPa 0,0 l/m 0 min 0 min 0 W/m 12,6 km/h (3 Bft)
17.10.2014 01:26 14,1 C 12,2 C 94 % 1007,3 hPa 0,0 l/m 0 min 0 min 0 W/m 10,5 km/h (2 Bft)
17.10.2014 01:28 14,1 C 12,2 C 94 % 1007,2 hPa 0,0 l/m 0 min 0 min 0 W/m 12,6 km/h (3 Bft)
17.10.2014 01:30 14,1 C 12,2 C 95 % 1007,2 hPa 0,0 l/m 0 min 0 min 0 W/m 14,6 km/h (3 Bft)
17.10.2014 01:32 14,2 C 12,2 C 95 % 1007,2 hPa 0,0 l/m 0 min 0 min 0 W/m 12,6 km/h (3 Bft)
17.10.2014 01:34 14,2 C 12,2 C 95 % 1007,2 hPa 0,0 l/m 0 min 0 min 0 W/m 10,5 km/h (2 Bft)
17.10.2014 01:36 14,2 C 12,2 C 95 % 1007,2 hPa 0,0 l/m 0 min 0 min 0 W/m 14,6 km/h (3 Bft)
17.10.2014 01:38 14,2 C 12,2 C 95 % 1007,2 hPa 0,0 l/m 0 min 0 min 0 W/m 10,5 km/h (2 Bft)
17.10.2014 01:40 14,2 C 12,2 C 95 % 1007,2 hPa 0,0 l/m 0 min 0 min 0 W/m 10,5 km/h (2 Bft)
17.10.2014 01:42 14,2 C 12,2 C 95 % 1007,3 hPa 0,0 l/m 0 min 0 min 0 W/m 12,6 km/h (3 Bft)
17.10.2014 01:44 14,2 C 12,2 C 95 % 1007,2 hPa 0,0 l/m 0 min 0 min 0 W/m 6,3 km/h (2 Bft)
17.10.2014 01:46 14,2 C 12,2 C 95 % 1007,1 hPa 0,0 l/m 0 min 0 min 0 W/m 8,4 km/h (2 Bft)
17.10.2014 01:48 14,2 C 12,2 C 95 % 1007,1 hPa 0,0 l/m 0 min 0 min 0 W/m 8,4 km/h (2 Bft)
17.10.2014 01:50 14,2 C 12,2 C 95 % 1007,1 hPa 0,0 l/m 0 min 0 min 0 W/m 8,4 km/h (2 Bft)
17.10.2014 01:52 14,2 C 12,2 C 95 % 1007,1 hPa 0,0 l/m 0 min 0 min 0 W/m 4,2 km/h (1 Bft)
17.10.2014 01:54 14,2 C 12,2 C 95 % 1007,1 hPa 0,0 l/m 0 min 0 min 0 W/m 6,3 km/h (2 Bft)
17.10.2014 01:56 14,2 C 12,2 C 95 % 1007,1 hPa 0,0 l/m 0 min 0 min 0 W/m 8,4 km/h (2 Bft)
17.10.2014 01:58 14,2 C 12,2 C 95 % 1007,1 hPa 0,0 l/m 0 min 0 min 0 W/m 6,3 km/h (2 Bft)
17.10.2014 02:00 14,2 C 12,2 C 95 % 1007,1 hPa 0,0 l/m 0 min 0 min 0 W/m 6,3 km/h (2 Bft)
17.10.2014 02:02 14,2 C 12,2 C 95 % 1007,1 hPa 0,0 l/m 0 min 0 min 0 W/m 4,2 km/h (1 Bft)
17.10.2014 02:04 14,2 C 12,2 C 95 % 1007,1 hPa 0,0 l/m 0 min 0 min 0 W/m 4,2 km/h (1 Bft)
17.10.2014 02:06 14,2 C 12,2 C 95 % 1007,1 hPa 0,0 l/m 0 min 0 min 0 W/m 8,4 km/h (2 Bft)
17.10.2014 02:08 14,2 C 12,2 C 95 % 1007,0 hPa 0,0 l/m 0 min 0 min 0 W/m 4,2 km/h (1 Bft)
17.10.2014 02:10 14,2 C 12,2 C 95 % 1007,0 hPa 0,0 l/m 0 min 0 min 0 W/m 4,2 km/h (1 Bft)
17.10.2014 02:12 14,2 C 12,2 C 95 % 1007,0 hPa 0,0 l/m 0 min 0 min 0 W/m 6,3 km/h (2 Bft)
17.10.2014 02:14 14,2 C 12,2 C 95 % 1007,0 hPa 0,0 l/m 0 min 0 min 0 W/m 4,2 km/h (1 Bft)
17.10.2014 02:16 14,2 C 12,2 C 95 % 1007,0 hPa 0,0 l/m 0 min 0 min 0 W/m 4,2 km/h (1 Bft)
17.10.2014 02:18 14,1 C 12,2 C 95 % 1007,0 hPa 0,0 l/m 0 min 0 min 0 W/m 4,2 km/h (1 Bft)
17.10.2014 02:20 14,1 C 12,2 C 95 % 1007,0 hPa 0,0 l/m 0 min 0 min 0 W/m 4,2 km/h (1 Bft)
17.10.2014 02:22 14,1 C 12,2 C 95 % 1007,1 hPa 0,0 l/m 0 min 0 min 0 W/m 4,2 km/h (1 Bft)
17.10.2014 02:24 14,1 C 12,2 C 95 % 1007,0 hPa 0,0 l/m 0 min 0 min 0 W/m 4,2 km/h (1 Bft)
17.10.2014 02:26 14,0 C 12,2 C 95 % 1007,0 hPa 0,0 l/m 0 min 0 min 0 W/m 4,2 km/h (1 Bft)
17.10.2014 02:28 14,0 C 12,2 C 95 % 1006,9 hPa 0,0 l/m 0 min 0 min 0 W/m 4,2 km/h (1 Bft)
17.10.2014 02:30 14,0 C 12,2 C 95 % 1006,9 hPa 0,0 l/m 0 min 0 min 0 W/m 2,1 km/h (1 Bft)
17.10.2014 02:32 13,9 C 12,2 C 95 % 1006,9 hPa 0,0 l/m 0 min 0 min 0 W/m 2,1 km/h (1 Bft)
17.10.2014 02:34 13,9 C 12,2 C 95 % 1006,8 hPa 0,0 l/m 0 min 2 min 0 W/m 4,2 km/h (1 Bft)
17.10.2014 02:36 13,9 C 12,2 C 95 % 1006,8 hPa 0,2 l/m 0 min 2 min 0 W/m 4,2 km/h (1 Bft)
17.10.2014 02:38 13,9 C 12,2 C 95 % 1006,8 hPa 0,0 l/m 0 min 2 min 0 W/m 2,1 km/h (1 Bft)
17.10.2014 02:40 13,9 C 12,2 C 95 % 1006,8 hPa 0,0 l/m 0 min 2 min 0 W/m 2,1 km/h (1 Bft)
17.10.2014 02:42 13,9 C 12,2 C 95 % 1006,7 hPa 0,0 l/m 0 min 0 min 0 W/m 4,2 km/h (1 Bft)
17.10.2014 02:44 13,9 C 12,2 C 95 % 1006,7 hPa 0,0 l/m 0 min 0 min 0 W/m 10,5 km/h (2 Bft)
17.10.2014 02:46 13,9 C 12,2 C 95 % 1006,6 hPa 0,0 l/m 0 min 0 min 0 W/m 8,4 km/h (2 Bft)
17.10.2014 02:48 13,8 C 12,2 C 95 % 1006,6 hPa 0,0 l/m 0 min 0 min 0 W/m 8,4 km/h (2 Bft)
17.10.2014 02:50 13,8 C 12,2 C 95 % 1006,5 hPa 0,0 l/m 0 min 0 min 0 W/m 8,4 km/h (2 Bft)
17.10.2014 02:52 13,8 C 12,2 C 95 % 1006,5 hPa 0,0 l/m 0 min 0 min 0 W/m 4,2 km/h (1 Bft)
17.10.2014 02:54 13,8 C 12,2 C 95 % 1006,5 hPa 0,0 l/m 0 min 0 min 0 W/m 4,2 km/h (1 Bft)
17.10.2014 02:56 13,8 C 12,2 C 95 % 1006,4 hPa 0,0 l/m 0 min 0 min 0 W/m 4,2 km/h (1 Bft)
17.10.2014 02:58 13,8 C 12,2 C 95 % 1006,4 hPa 0,0 l/m 0 min 0 min 0 W/m 4,2 km/h (1 Bft)
17.10.2014 03:00 13,8 C 11,7 C 95 % 1006,5 hPa 0,0 l/m 0 min 0 min 0 W/m 4,2 km/h (1 Bft)
17.10.2014 03:02 13,8 C 11,7 C 95 % 1006,4 hPa 0,0 l/m 0 min 0 min 0 W/m 4,2 km/h (1 Bft)
17.10.2014 03:04 13,7 C 11,7 C 95 % 1006,4 hPa 0,0 l/m 0 min 0 min 0 W/m 4,2 km/h (1 Bft)
17.10.2014 03:06 13,7 C 11,7 C 95 % 1006,4 hPa 0,0 l/m 0 min 0 min 0 W/m 4,2 km/h (1 Bft)
17.10.2014 03:08 13,7 C 11,7 C 95 % 1006,4 hPa 0,0 l/m 0 min 0 min 0 W/m 4,2 km/h (1 Bft)
17.10.2014 03:10 13,7 C 11,7 C 95 % 1006,5 hPa 0,0 l/m 0 min 0 min 0 W/m 4,2 km/h (1 Bft)
17.10.2014 03:12 13,7 C 11,7 C 95 % 1006,5 hPa 0,0 l/m 0 min 0 min 0 W/m 4,2 km/h (1 Bft)
17.10.2014 03:14 13,7 C 11,7 C 95 % 1006,5 hPa 0,0 l/m 0 min 0 min 0 W/m 6,3 km/h (2 Bft)
17.10.2014 03:16 13,7 C 11,7 C 95 % 1006,6 hPa 0,0 l/m 0 min 0 min 0 W/m 4,2 km/h (1 Bft)
17.10.2014 03:18 13,6 C 11,7 C 95 % 1006,6 hPa 0,0 l/m 0 min 0 min 0 W/m 4,2 km/h (1 Bft)
17.10.2014 03:20 13,6 C 11,7 C 95 % 1006,6 hPa 0,0 l/m 0 min 0 min 0 W/m 6,3 km/h (2 Bft)
17.10.2014 03:22 13,6 C 11,7 C 95 % 1006,6 hPa 0,0 l/m 0 min 0 min 0 W/m 4,2 km/h (1 Bft)
17.10.2014 03:24 13,6 C 11,7 C 95 % 1006,6 hPa 0,0 l/m 0 min 0 min 0 W/m 4,2 km/h (1 Bft)
17.10.2014 03:26 13,6 C 11,7 C 95 % 1006,5 hPa 0,0 l/m 0 min 0 min 0 W/m 4,2 km/h (1 Bft)
17.10.2014 03:28 13,6 C 11,7 C 95 % 1006,5 hPa 0,0 l/m 0 min 0 min 0 W/m 4,2 km/h (1 Bft)
17.10.2014 03:30 13,5 C 11,7 C 95 % 1006,6 hPa 0,0 l/m 0 min 0 min 0 W/m 4,2 km/h (1 Bft)
17.10.2014 03:32 13,5 C 11,7 C 95 % 1006,5 hPa 0,0 l/m 0 min 0 min 0 W/m 4,2 km/h (1 Bft)
17.10.2014 03:34 13,5 C 11,7 C 95 % 1006,5 hPa 0,0 l/m 0 min 0 min 0 W/m 8,4 km/h (2 Bft)
17.10.2014 03:36 13,5 C 11,7 C 95 % 1006,6 hPa 0,0 l/m 0 min 0 min 0 W/m 4,2 km/h (1 Bft)
17.10.2014 03:38 13,4 C 11,7 C 95 % 1006,6 hPa 0,0 l/m 0 min 0 min 0 W/m 4,2 km/h (1 Bft)
17.10.2014 03:40 13,4 C 11,7 C 95 % 1006,6 hPa 0,0 l/m 0 min 0 min 0 W/m 4,2 km/h (1 Bft)
17.10.2014 03:42 13,4 C 11,7 C 95 % 1006,6 hPa 0,0 l/m 0 min 0 min 0 W/m 4,2 km/h (1 Bft)
17.10.2014 03:44 13,4 C 11,7 C 95 % 1006,7 hPa 0,0 l/m 0 min 0 min 0 W/m 4,2 km/h (1 Bft)
17.10.2014 03:46 13,4 C 11,7 C 95 % 1006,7 hPa 0,0 l/m 0 min 0 min 0 W/m 4,2 km/h (1 Bft)
17.10.2014 03:48 13,4 C 11,7 C 95 % 1006,7 hPa 0,0 l/m 0 min 0 min 0 W/m 6,3 km/h (2 Bft)
17.10.2014 03:50 13,4 C 11,7 C 95 % 1006,7 hPa 0,0 l/m 0 min 0 min 0 W/m 6,3 km/h (2 Bft)
17.10.2014 03:52 13,3 C 11,7 C 95 % 1006,7 hPa 0,0 l/m 0 min 0 min 0 W/m 4,2 km/h (1 Bft)
17.10.2014 03:54 13,3 C 11,7 C 95 % 1006,7 hPa 0,0 l/m 0 min 0 min 0 W/m 4,2 km/h (1 Bft)
17.10.2014 03:56 13,3 C 11,7 C 95 % 1006,7 hPa 0,0 l/m 0 min 0 min 0 W/m 4,2 km/h (1 Bft)
17.10.2014 03:58 13,3 C 11,7 C 95 % 1006,7 hPa 0,0 l/m 0 min 0 min 0 W/m 6,3 km/h (2 Bft)
17.10.2014 04:00 13,3 C 11,7 C 95 % 1006,7 hPa 0,0 l/m 0 min 0 min 0 W/m 6,3 km/h (2 Bft)
17.10.2014 04:02 13,3 C 11,7 C 95 % 1006,8 hPa 0,0 l/m 0 min 0 min 0 W/m 6,3 km/h (2 Bft)
17.10.2014 04:04 13,3 C 11,7 C 95 % 1006,8 hPa 0,0 l/m 0 min 0 min 0 W/m 6,3 km/h (2 Bft)
17.10.2014 04:06 13,3 C 11,7 C 95 % 1006,7 hPa 0,0 l/m 0 min 0 min 0 W/m 6,3 km/h (2 Bft)
17.10.2014 04:08 13,3 C 11,7 C 95 % 1006,6 hPa 0,0 l/m 0 min 0 min 0 W/m 6,3 km/h (2 Bft)
17.10.2014 04:10 13,3 C 12,2 C 95 % 1006,6 hPa 0,0 l/m 0 min 0 min 0 W/m 6,3 km/h (2 Bft)
17.10.2014 04:12 13,3 C 12,2 C 95 % 1006,7 hPa 0,0 l/m 0 min 0 min 0 W/m 8,4 km/h (2 Bft)
17.10.2014 04:14 13,3 C 12,2 C 95 % 1006,7 hPa 0,0 l/m 0 min 0 min 0 W/m 8,4 km/h (2 Bft)
17.10.2014 04:16 13,3 C 12,2 C 95 % 1006,8 hPa 0,0 l/m 0 min 0 min 0 W/m 8,4 km/h (2 Bft)
17.10.2014 04:18 13,3 C 12,2 C 95 % 1006,8 hPa 0,0 l/m 0 min 0 min 0 W/m 6,3 km/h (2 Bft)
17.10.2014 04:20 13,3 C 12,2 C 95 % 1006,8 hPa 0,0 l/m 0 min 0 min 0 W/m 8,4 km/h (2 Bft)
17.10.2014 04:22 13,3 C 12,2 C 96 % 1006,8 hPa 0,0 l/m 0 min 0 min 0 W/m 8,4 km/h (2 Bft)
17.10.2014 04:24 13,4 C 12,2 C 96 % 1006,9 hPa 0,0 l/m 0 min 0 min 0 W/m 10,5 km/h (2 Bft)
17.10.2014 04:26 13,4 C 12,2 C 96 % 1006,9 hPa 0,0 l/m 0 min 0 min 0 W/m 8,4 km/h (2 Bft)
17.10.2014 04:28 13,4 C 12,2 C 96 % 1006,9 hPa 0,0 l/m 0 min 0 min 0 W/m 10,5 km/h (2 Bft)
17.10.2014 04:30 13,4 C 12,2 C 96 % 1007,0 hPa 0,0 l/m 0 min 0 min 0 W/m 8,4 km/h (2 Bft)
17.10.2014 04:32 13,4 C 12,2 C 96 % 1007,0 hPa 0,0 l/m 0 min 0 min 0 W/m 6,3 km/h (2 Bft)
17.10.2014 04:34 13,4 C 12,2 C 96 % 1007,1 hPa 0,0 l/m 0 min 0 min 0 W/m 10,5 km/h (2 Bft)
17.10.2014 04:36 13,5 C 12,2 C 96 % 1007,0 hPa 0,0 l/m 0 min 0 min 0 W/m 12,6 km/h (3 Bft)
17.10.2014 04:38 13,5 C 12,2 C 96 % 1007,0 hPa 0,0 l/m 0 min 0 min 0 W/m 8,4 km/h (2 Bft)
17.10.2014 04:40 13,5 C 12,2 C 96 % 1007,0 hPa 0,0 l/m 0 min 0 min 0 W/m 8,4 km/h (2 Bft)
17.10.2014 04:42 13,5 C 12,2 C 96 % 1007,0 hPa 0,0 l/m 0 min 0 min 0 W/m 10,5 km/h (2 Bft)
17.10.2014 04:44 13,6 C 12,2 C 96 % 1007,0 hPa 0,0 l/m 0 min 0 min 0 W/m 10,5 km/h (2 Bft)
17.10.2014 04:46 13,6 C 12,2 C 96 % 1007,0 hPa 0,0 l/m 0 min 0 min 0 W/m 8,4 km/h (2 Bft)
17.10.2014 04:48 13,6 C 12,2 C 96 % 1007,2 hPa 0,0 l/m 0 min 0 min 0 W/m 8,4 km/h (2 Bft)
17.10.2014 04:50 13,6 C 12,2 C 96 % 1007,1 hPa 0,0 l/m 0 min 0 min 0 W/m 10,5 km/h (2 Bft)
17.10.2014 04:52 13,6 C 12,2 C 96 % 1007,1 hPa 0,0 l/m 0 min 0 min 0 W/m 10,5 km/h (2 Bft)
17.10.2014 04:54 13,6 C 12,2 C 96 % 1007,1 hPa 0,0 l/m 0 min 0 min 0 W/m 6,3 km/h (2 Bft)
17.10.2014 04:56 13,6 C 12,2 C 96 % 1007,1 hPa 0,0 l/m 0 min 0 min 0 W/m 10,5 km/h (2 Bft)
17.10.2014 04:58 13,6 C 12,2 C 96 % 1007,1 hPa 0,0 l/m 0 min 0 min 0 W/m 8,4 km/h (2 Bft)
17.10.2014 05:00 13,7 C 12,2 C 96 % 1007,1 hPa 0,0 l/m 0 min 0 min 0 W/m 10,5 km/h (2 Bft)
17.10.2014 05:02 13,7 C 12,2 C 96 % 1007,1 hPa 0,0 l/m 0 min 0 min 0 W/m 12,6 km/h (3 Bft)
17.10.2014 05:04 13,7 C 12,2 C 96 % 1007,2 hPa 0,0 l/m 0 min 0 min 0 W/m 12,6 km/h (3 Bft)
17.10.2014 05:06 13,7 C 12,2 C 96 % 1007,1 hPa 0,0 l/m 0 min 2 min 0 W/m 8,4 km/h (2 Bft)
17.10.2014 05:08 13,7 C 12,2 C 96 % 1007,1 hPa 0,0 l/m 0 min 0 min 0 W/m 12,6 km/h (3 Bft)
17.10.2014 05:10 13,7 C 12,2 C 96 % 1007,2 hPa 0,0 l/m 0 min 0 min 0 W/m 8,4 km/h (2 Bft)
17.10.2014 05:12 13,7 C 12,2 C 96 % 1007,2 hPa 0,0 l/m 0 min 2 min 0 W/m 12,6 km/h (3 Bft)
17.10.2014 05:14 13,7 C 12,2 C 96 % 1007,2 hPa 0,0 l/m 0 min 2 min 0 W/m 14,6 km/h (3 Bft)
17.10.2014 05:16 13,7 C 12,2 C 97 % 1007,2 hPa 0,0 l/m 0 min 2 min 0 W/m 10,5 km/h (2 Bft)
17.10.2014 05:18 13,7 C 12,2 C 97 % 1007,2 hPa 0,2 l/m 0 min 2 min 0 W/m 12,6 km/h (3 Bft)
17.10.2014 05:20 13,7 C 12,2 C 97 % 1007,3 hPa 0,2 l/m 0 min 2 min 0 W/m 8,4 km/h (2 Bft)
17.10.2014 05:22 13,7 C 12,2 C 97 % 1007,3 hPa 0,0 l/m 0 min 2 min 0 W/m 10,5 km/h (2 Bft)
17.10.2014 05:24 13,7 C 12,2 C 97 % 1007,2 hPa 0,0 l/m 0 min 2 min 0 W/m 8,4 km/h (2 Bft)
17.10.2014 05:26 13,7 C 12,2 C 96 % 1007,2 hPa 0,0 l/m 0 min 2 min 0 W/m 10,5 km/h (2 Bft)
17.10.2014 05:28 13,7 C 12,2 C 97 % 1007,3 hPa 0,0 l/m 0 min 2 min 0 W/m 6,3 km/h (2 Bft)
17.10.2014 05:30 13,7 C 12,2 C 96 % 1007,3 hPa 0,2 l/m 0 min 2 min 0 W/m 8,4 km/h (2 Bft)
17.10.2014 05:32 13,7 C 12,2 C 97 % 1007,3 hPa 0,0 l/m 0 min 2 min 0 W/m 12,6 km/h (3 Bft)
17.10.2014 05:34 13,7 C 12,2 C 97 % 1007,4 hPa 0,0 l/m 0 min 2 min 0 W/m 8,4 km/h (2 Bft)
17.10.2014 05:36 13,7 C 12,2 C 96 % 1007,4 hPa 0,0 l/m 0 min 2 min 0 W/m 10,5 km/h (2 Bft)
17.10.2014 05:38 13,7 C 12,2 C 96 % 1007,4 hPa 0,0 l/m 0 min 2 min 0 W/m 8,4 km/h (2 Bft)
17.10.2014 05:40 13,7 C 12,2 C 97 % 1007,5 hPa 0,0 l/m 0 min 0 min 0 W/m 12,6 km/h (3 Bft)
17.10.2014 05:42 13,7 C 12,2 C 97 % 1007,4 hPa 0,0 l/m 0 min 0 min 0 W/m 8,4 km/h (2 Bft)
17.10.2014 05:44 13,7 C 12,2 C 96 % 1007,4 hPa 0,0 l/m 0 min 0 min 0 W/m 10,5 km/h (2 Bft)
17.10.2014 05:46 13,7 C 12,2 C 97 % 1007,4 hPa 0,0 l/m 0 min 0 min 0 W/m 12,6 km/h (3 Bft)
17.10.2014 05:48 13,7 C 12,2 C 97 % 1007,4 hPa 0,0 l/m 0 min 0 min 0 W/m 12,6 km/h (3 Bft)
17.10.2014 05:50 13,7 C 12,2 C 97 % 1007,5 hPa 0,0 l/m 0 min 0 min 0 W/m 14,6 km/h (3 Bft)
17.10.2014 05:52 13,7 C 12,2 C 97 % 1007,5 hPa 0,0 l/m 0 min 0 min 0 W/m 8,4 km/h (2 Bft)
17.10.2014 05:54 13,7 C 12,2 C 97 % 1007,5 hPa 0,0 l/m 0 min 0 min 0 W/m 10,5 km/h (2 Bft)
17.10.2014 05:56 13,7 C 12,2 C 97 % 1007,5 hPa 0,0 l/m 0 min 0 min 0 W/m 10,5 km/h (2 Bft)
17.10.2014 05:58 13,7 C 12,2 C 97 % 1007,5 hPa 0,0 l/m 0 min 0 min 0 W/m 10,5 km/h (2 Bft)
17.10.2014 06:00 13,7 C 12,2 C 97 % 1007,5 hPa 0,0 l/m 0 min 0 min 0 W/m 10,5 km/h (2 Bft)
17.10.2014 06:02 13,7 C 12,2 C 97 % 1007,6 hPa 0,0 l/m 0 min 2 min 0 W/m 10,5 km/h (2 Bft)
17.10.2014 06:06 13,7 C 12,2 C 97 % 1007,7 hPa 0,0 l/m 0 min 2 min 0 W/m 10,5 km/h (2 Bft)
17.10.2014 06:08 13,7 C 12,2 C 97 % 1007,7 hPa 0,0 l/m 0 min 0 min 0 W/m 10,5 km/h (2 Bft)
17.10.2014 06:10 13,7 C 12,2 C 97 % 1007,7 hPa 0,0 l/m 0 min 2 min 0 W/m 12,6 km/h (3 Bft)
17.10.2014 06:12 13,7 C 12,2 C 97 % 1007,7 hPa 0,0 l/m 0 min 2 min 0 W/m 10,5 km/h (2 Bft)
17.10.2014 06:14 13,7 C 12,2 C 97 % 1007,8 hPa 0,0 l/m 0 min 2 min 0 W/m 12,6 km/h (3 Bft)
17.10.2014 06:16 13,7 C 12,2 C 97 % 1007,9 hPa 0,0 l/m 0 min 0 min 0 W/m 8,4 km/h (2 Bft)
17.10.2014 06:18 13,7 C 12,2 C 97 % 1007,9 hPa 0,0 l/m 0 min 0 min 0 W/m 8,4 km/h (2 Bft)
17.10.2014 06:20 13,7 C 12,2 C 97 % 1008,0 hPa 0,0 l/m 0 min 0 min 0 W/m 8,4 km/h (2 Bft)
17.10.2014 06:22 13,7 C 12,2 C 97 % 1007,9 hPa 0,0 l/m 0 min 2 min 0 W/m 8,4 km/h (2 Bft)
17.10.2014 06:24 13,7 C 12,2 C 97 % 1007,9 hPa 0,0 l/m 0 min 2 min 0 W/m 10,5 km/h (2 Bft)
17.10.2014 06:26 13,7 C 12,2 C 97 % 1008,0 hPa 0,0 l/m 0 min 2 min 0 W/m 12,6 km/h (3 Bft)
17.10.2014 06:28 13,7 C 12,2 C 97 % 1007,9 hPa 0,0 l/m 0 min 2 min 0 W/m 10,5 km/h (2 Bft)
17.10.2014 06:30 13,7 C 12,2 C 97 % 1008,0 hPa 0,0 l/m 0 min 2 min 0 W/m 10,5 km/h (2 Bft)
17.10.2014 06:32 13,7 C 12,2 C 97 % 1008,0 hPa 0,0 l/m 0 min 2 min 0 W/m 8,4 km/h (2 Bft)
17.10.2014 06:34 13,7 C 12,2 C 97 % 1008,0 hPa 0,0 l/m 0 min 2 min 0 W/m 6,3 km/h (2 Bft)
17.10.2014 06:36 13,7 C 12,2 C 97 % 1008,0 hPa 0,0 l/m 0 min 2 min 0 W/m 8,4 km/h (2 Bft)
17.10.2014 06:38 13,7 C 12,2 C 97 % 1008,1 hPa 0,0 l/m 0 min 2 min 0 W/m 10,5 km/h (2 Bft)
17.10.2014 06:40 13,7 C 12,2 C 97 % 1008,1 hPa 0,0 l/m 0 min 2 min 0 W/m 10,5 km/h (2 Bft)
17.10.2014 06:42 13,7 C 12,2 C 97 % 1008,0 hPa 0,0 l/m 0 min 2 min 0 W/m 14,6 km/h (3 Bft)
17.10.2014 06:44 13,7 C 12,2 C 97 % 1008,1 hPa 0,2 l/m 0 min 2 min 0 W/m 8,4 km/h (2 Bft)
17.10.2014 06:46 13,7 C 12,2 C 97 % 1008,0 hPa 0,0 l/m 0 min 2 min 0 W/m 8,4 km/h (2 Bft)
17.10.2014 06:48 13,7 C 12,2 C 97 % 1008,1 hPa 0,0 l/m 0 min 2 min 0 W/m 8,4 km/h (2 Bft)
17.10.2014 06:50 13,7 C 12,2 C 97 % 1008,2 hPa 0,0 l/m 0 min 2 min 0 W/m 8,4 km/h (2 Bft)
17.10.2014 06:52 13,7 C 12,2 C 97 % 1008,2 hPa 0,0 l/m 0 min 2 min 0 W/m 12,6 km/h (3 Bft)
17.10.2014 06:54 13,7 C 12,2 C 97 % 1008,2 hPa 0,0 l/m 0 min 2 min 0 W/m 8,4 km/h (2 Bft)
17.10.2014 06:56 13,7 C 12,2 C 97 % 1008,2 hPa 0,0 l/m 0 min 2 min 0 W/m 10,5 km/h (2 Bft)
17.10.2014 06:58 13,7 C 12,2 C 97 % 1008,2 hPa 0,2 l/m 0 min 2 min 0 W/m 8,4 km/h (2 Bft)
17.10.2014 07:00 13,7 C 12,2 C 97 % 1008,2 hPa 0,0 l/m 0 min 2 min 0 W/m 12,6 km/h (3 Bft)
17.10.2014 07:02 13,7 C 12,2 C 97 % 1008,2 hPa 0,0 l/m 0 min 2 min 0 W/m 10,5 km/h (2 Bft)
17.10.2014 07:04 13,7 C 12,2 C 97 % 1008,2 hPa 0,0 l/m 0 min 2 min 0 W/m 8,4 km/h (2 Bft)
17.10.2014 07:06 13,7 C 12,2 C 97 % 1008,2 hPa 0,0 l/m 0 min 2 min 0 W/m 10,5 km/h (2 Bft)
17.10.2014 07:08 13,7 C 12,2 C 97 % 1008,3 hPa 0,0 l/m 0 min 2 min 0 W/m 10,5 km/h (2 Bft)
17.10.2014 07:10 13,7 C 12,2 C 97 % 1008,3 hPa 0,0 l/m 0 min 2 min 0 W/m 10,5 km/h (2 Bft)
17.10.2014 07:12 13,7 C 12,2 C 97 % 1008,3 hPa 0,0 l/m 0 min 2 min 0 W/m 8,4 km/h (2 Bft)
17.10.2014 07:14 13,7 C 12,2 C 97 % 1008,3 hPa 0,0 l/m 0 min 2 min 0 W/m 8,4 km/h (2 Bft)
17.10.2014 07:16 13,7 C 12,2 C 97 % 1008,3 hPa 0,0 l/m 0 min 2 min 0 W/m 12,6 km/h (3 Bft)
17.10.2014 07:18 13,7 C 12,2 C 97 % 1008,3 hPa 0,0 l/m 0 min 2 min 0 W/m 10,5 km/h (2 Bft)
17.10.2014 07:20 13,7 C 12,2 C 97 % 1008,4 hPa 0,0 l/m 0 min 2 min 0 W/m 10,5 km/h (2 Bft)
17.10.2014 07:22 13,7 C 12,2 C 97 % 1008,4 hPa 0,0 l/m 0 min 2 min 0 W/m 8,4 km/h (2 Bft)
17.10.2014 07:24 13,7 C 12,2 C 97 % 1008,5 hPa 0,0 l/m 0 min 2 min 0 W/m 8,4 km/h (2 Bft)
17.10.2014 07:26 13,7 C 12,2 C 97 % 1008,4 hPa 0,0 l/m 0 min 2 min 0 W/m 12,6 km/h (3 Bft)
17.10.2014 07:28 13,7 C 12,2 C 97 % 1008,5 hPa 0,0 l/m 0 min 2 min 0 W/m 6,3 km/h (2 Bft)
17.10.2014 07:30 13,7 C 12,2 C 97 % 1008,5 hPa 0,0 l/m 0 min 2 min 0 W/m 6,3 km/h (2 Bft)
17.10.2014 07:32 13,7 C 12,2 C 97 % 1008,5 hPa 0,0 l/m 0 min 2 min 0 W/m 8,4 km/h (2 Bft)
17.10.2014 07:34 13,7 C 12,2 C 97 % 1008,5 hPa 0,0 l/m 0 min 2 min 0 W/m 8,4 km/h (2 Bft)
17.10.2014 07:36 13,7 C 12,2 C 97 % 1008,5 hPa 0,0 l/m 0 min 2 min 0 W/m 10,5 km/h (2 Bft)
17.10.2014 07:38 13,7 C 12,2 C 97 % 1008,6 hPa 0,0 l/m 0 min 0 min 0 W/m 8,4 km/h (2 Bft)
17.10.2014 07:40 13,7 C 12,2 C 97 % 1008,7 hPa 0,0 l/m 0 min 0 min 0 W/m 8,4 km/h (2 Bft)
17.10.2014 07:42 13,7 C 12,2 C 97 % 1008,7 hPa 0,0 l/m 0 min 0 min 0 W/m 12,6 km/h (3 Bft)
17.10.2014 07:44 13,7 C 12,2 C 97 % 1008,7 hPa 0,0 l/m 0 min 0 min 0 W/m 12,6 km/h (3 Bft)
17.10.2014 07:46 13,7 C 12,2 C 97 % 1008,8 hPa 0,0 l/m 0 min 0 min 0 W/m 8,4 km/h (2 Bft)
17.10.2014 07:48 13,7 C 12,2 C 97 % 1008,8 hPa 0,0 l/m 0 min 0 min 0 W/m 8,4 km/h (2 Bft)
17.10.2014 07:50 13,7 C 12,2 C 97 % 1008,9 hPa 0,0 l/m 0 min 0 min 0 W/m 12,6 km/h (3 Bft)
17.10.2014 07:52 13,7 C 12,2 C 97 % 1008,9 hPa 0,0 l/m 0 min 0 min 0 W/m 8,4 km/h (2 Bft)
17.10.2014 07:54 13,7 C 12,2 C 97 % 1009,0 hPa 0,0 l/m 0 min 0 min 0 W/m 8,4 km/h (2 Bft)
17.10.2014 07:56 13,7 C 12,2 C 97 % 1009,0 hPa 0,0 l/m 0 min 0 min 0 W/m 8,4 km/h (2 Bft)
17.10.2014 07:58 13,7 C 12,2 C 97 % 1009,0 hPa 0,0 l/m 0 min 0 min 0 W/m 10,5 km/h (2 Bft)
17.10.2014 08:00 13,7 C 12,2 C 97 % 1009,0 hPa 0,0 l/m 0 min 0 min 0 W/m 10,5 km/h (2 Bft)
17.10.2014 08:02 13,7 C 12,2 C 97 % 1009,1 hPa 0,0 l/m 0 min 0 min 0 W/m 10,5 km/h (2 Bft)
17.10.2014 08:04 13,7 C 12,2 C 97 % 1009,1 hPa 0,0 l/m 0 min 0 min 0 W/m 12,6 km/h (3 Bft)
17.10.2014 08:06 13,7 C 12,2 C 97 % 1009,2 hPa 0,0 l/m 0 min 0 min 0 W/m 12,6 km/h (3 Bft)
17.10.2014 08:08 13,7 C 12,2 C 97 % 1009,2 hPa 0,0 l/m 0 min 0 min 5 W/m 12,6 km/h (3 Bft)
17.10.2014 08:10 13,7 C 12,2 C 97 % 1009,3 hPa 0,0 l/m 0 min 0 min 5 W/m 10,5 km/h (2 Bft)
17.10.2014 08:12 13,7 C 12,2 C 97 % 1009,3 hPa 0,0 l/m 0 min 0 min 5 W/m 8,4 km/h (2 Bft)
17.10.2014 08:14 13,7 C 12,2 C 97 % 1009,4 hPa 0,0 l/m 0 min 0 min 5 W/m 8,4 km/h (2 Bft)
17.10.2014 08:16 13,7 C 12,2 C 97 % 1009,5 hPa 0,0 l/m 0 min 0 min 5 W/m 10,5 km/h (2 Bft)
17.10.2014 08:18 13,7 C 12,2 C 97 % 1009,4 hPa 0,0 l/m 0 min 0 min 5 W/m 8,4 km/h (2 Bft)
17.10.2014 08:20 13,7 C 12,2 C 97 % 1009,5 hPa 0,0 l/m 0 min 0 min 5 W/m 12,6 km/h (3 Bft)
17.10.2014 08:22 13,7 C 12,2 C 97 % 1009,6 hPa 0,0 l/m 0 min 0 min 6 W/m 6,3 km/h (2 Bft)
17.10.2014 08:24 13,7 C 12,2 C 97 % 1009,6 hPa 0,0 l/m 0 min 0 min 7 W/m 6,3 km/h (2 Bft)
17.10.2014 08:26 13,7 C 12,2 C 97 % 1009,7 hPa 0,0 l/m 0 min 0 min 7 W/m 8,4 km/h (2 Bft)
17.10.2014 08:28 13,7 C 12,2 C 97 % 1009,7 hPa 0,0 l/m 0 min 0 min 7 W/m 8,4 km/h (2 Bft)
17.10.2014 08:30 13,7 C 12,2 C 97 % 1009,8 hPa 0,0 l/m 0 min 0 min 9 W/m 10,5 km/h (2 Bft)
17.10.2014 08:32 13,8 C 12,2 C 97 % 1009,8 hPa 0,0 l/m 0 min 0 min 11 W/m 14,6 km/h (3 Bft)
17.10.2014 08:34 13,8 C 12,2 C 97 % 1009,8 hPa 0,0 l/m 0 min 0 min 11 W/m 12,6 km/h (3 Bft)
17.10.2014 08:36 13,8 C 12,2 C 97 % 1009,9 hPa 0,0 l/m 0 min 0 min 10 W/m 12,6 km/h (3 Bft)
17.10.2014 08:38 13,8 C 12,8 C 97 % 1010,0 hPa 0,0 l/m 0 min 0 min 9 W/m 14,6 km/h (3 Bft)
17.10.2014 08:40 13,8 C 12,8 C 98 % 1010,0 hPa 0,0 l/m 0 min 0 min 10 W/m 12,6 km/h (3 Bft)
17.10.2014 08:42 13,8 C 12,8 C 98 % 1010,1 hPa 0,0 l/m 0 min 0 min 12 W/m 14,6 km/h (3 Bft)
17.10.2014 08:44 13,8 C 12,8 C 98 % 1010,1 hPa 0,0 l/m 0 min 0 min 14 W/m 8,4 km/h (2 Bft)
17.10.2014 08:46 13,9 C 12,8 C 98 % 1010,1 hPa 0,0 l/m 0 min 0 min 18 W/m 8,4 km/h (2 Bft)
17.10.2014 08:48 13,9 C 12,8 C 98 % 1010,1 hPa 0,0 l/m 0 min 0 min 19 W/m 14,6 km/h (3 Bft)
17.10.2014 08:50 13,9 C 12,8 C 97 % 1010,3 hPa 0,0 l/m 0 min 0 min 19 W/m 14,6 km/h (3 Bft)
17.10.2014 08:52 13,9 C 12,8 C 98 % 1010,3 hPa 0,0 l/m 0 min 0 min 17 W/m 8,4 km/h (2 Bft)
17.10.2014 08:54 13,9 C 12,8 C 98 % 1010,3 hPa 0,0 l/m 0 min 0 min 20 W/m 8,4 km/h (2 Bft)
17.10.2014 08:56 13,9 C 12,8 C 98 % 1010,4 hPa 0,0 l/m 0 min 0 min 24 W/m 6,3 km/h (2 Bft)
17.10.2014 08:58 13,9 C 12,8 C 98 % 1010,4 hPa 0,0 l/m 0 min 0 min 26 W/m 6,3 km/h (2 Bft)
17.10.2014 09:00 13,9 C 12,8 C 98 % 1010,4 hPa 0,0 l/m 0 min 0 min 30 W/m 10,5 km/h (2 Bft)
17.10.2014 09:02 14,0 C 12,8 C 98 % 1010,5 hPa 0,0 l/m 0 min 0 min 27 W/m 12,6 km/h (3 Bft)
17.10.2014 09:04 14,0 C 12,8 C 98 % 1010,5 hPa 0,0 l/m 0 min 0 min 26 W/m 10,5 km/h (2 Bft)
17.10.2014 09:06 14,1 C 12,8 C 98 % 1010,6 hPa 0,0 l/m 0 min 0 min 25 W/m 8,4 km/h (2 Bft)
17.10.2014 09:08 14,1 C 12,8 C 98 % 1010,6 hPa 0,0 l/m 0 min 0 min 18 W/m 10,5 km/h (2 Bft)
17.10.2014 09:10 14,1 C 12,8 C 98 % 1010,6 hPa 0,0 l/m 0 min 0 min 16 W/m 10,5 km/h (2 Bft)
17.10.2014 09:12 14,1 C 12,8 C 98 % 1010,7 hPa 0,0 l/m 0 min 0 min 19 W/m 14,6 km/h (3 Bft)
17.10.2014 09:14 14,1 C 12,8 C 98 % 1010,8 hPa 0,0 l/m 0 min 0 min 24 W/m 12,6 km/h (3 Bft)
17.10.2014 09:16 14,1 C 12,8 C 98 % 1010,8 hPa 0,0 l/m 0 min 0 min 38 W/m 12,6 km/h (3 Bft)
17.10.2014 09:18 14,2 C 12,8 C 98 % 1010,9 hPa 0,0 l/m 0 min 0 min 50 W/m 8,4 km/h (2 Bft)
17.10.2014 09:20 14,2 C 12,8 C 98 % 1010,9 hPa 0,0 l/m 0 min 0 min 59 W/m 10,5 km/h (2 Bft)
17.10.2014 09:22 14,2 C 12,8 C 98 % 1011,0 hPa 0,0 l/m 2 min 0 min 78 W/m 8,4 km/h (2 Bft)
17.10.2014 09:24 14,2 C 12,8 C 98 % 1011,1 hPa 0,0 l/m 0 min 0 min 64 W/m 8,4 km/h (2 Bft)
17.10.2014 09:26 14,2 C 12,8 C 98 % 1011,0 hPa 0,0 l/m 0 min 0 min 47 W/m 10,5 km/h (2 Bft)
17.10.2014 09:28 14,2 C 12,8 C 98 % 1011,0 hPa 0,0 l/m 0 min 0 min 52 W/m 10,5 km/h (2 Bft)
17.10.2014 09:30 14,2 C 12,8 C 98 % 1011,1 hPa 0,0 l/m 0 min 0 min 47 W/m 12,6 km/h (3 Bft)
17.10.2014 09:32 14,2 C 12,8 C 98 % 1011,1 hPa 0,0 l/m 0 min 0 min 50 W/m 14,6 km/h (3 Bft)
17.10.2014 09:34 14,2 C 12,8 C 98 % 1011,2 hPa 0,0 l/m 0 min 0 min 61 W/m 12,6 km/h (3 Bft)
17.10.2014 09:36 14,2 C 13,3 C 98 % 1011,2 hPa 0,0 l/m 0 min 0 min 75 W/m 14,6 km/h (3 Bft)
17.10.2014 09:38 14,2 C 13,3 C 98 % 1011,3 hPa 0,0 l/m 0 min 0 min 67 W/m 10,5 km/h (2 Bft)
17.10.2014 09:40 14,2 C 13,3 C 98 % 1011,3 hPa 0,0 l/m 0 min 0 min 80 W/m 16,7 km/h (3 Bft)
17.10.2014 09:42 14,3 C 13,3 C 98 % 1011,4 hPa 0,0 l/m 0 min 0 min 82 W/m 14,6 km/h (3 Bft)
17.10.2014 09:44 14,3 C 13,3 C 98 % 1011,4 hPa 0,0 l/m 0 min 0 min 70 W/m 12,6 km/h (3 Bft)
17.10.2014 09:46 14,4 C 13,3 C 98 % 1011,4 hPa 0,0 l/m 0 min 0 min 55 W/m 12,6 km/h (3 Bft)
17.10.2014 09:48 14,4 C 13,3 C 98 % 1011,5 hPa 0,0 l/m 0 min 0 min 69 W/m 12,6 km/h (3 Bft)
17.10.2014 09:50 14,4 C 13,3 C 98 % 1011,6 hPa 0,0 l/m 0 min 0 min 73 W/m 14,6 km/h (3 Bft)
17.10.2014 09:52 14,4 C 13,3 C 98 % 1011,6 hPa 0,0 l/m 0 min 0 min 80 W/m 16,7 km/h (3 Bft)
17.10.2014 09:54 14,4 C 13,3 C 98 % 1011,6 hPa 0,0 l/m 0 min 0 min 99 W/m 16,7 km/h (3 Bft)
17.10.2014 09:56 14,5 C 13,3 C 98 % 1011,7 hPa 0,0 l/m 0 min 0 min 102 W/m 14,6 km/h (3 Bft)
17.10.2014 09:58 14,6 C 13,3 C 98 % 1011,7 hPa 0,0 l/m 0 min 0 min 67 W/m 10,5 km/h (2 Bft)
17.10.2014 10:00 14,6 C 13,3 C 98 % 1011,8 hPa 0,0 l/m 0 min 0 min 43 W/m 14,6 km/h (3 Bft)
17.10.2014 10:02 14,6 C 13,3 C 98 % 1011,7 hPa 0,0 l/m 0 min 0 min 40 W/m 14,6 km/h (3 Bft)
17.10.2014 10:04 14,6 C 13,3 C 98 % 1011,8 hPa 0,2 l/m 0 min 2 min 53 W/m 16,7 km/h (3 Bft)
17.10.2014 10:06 14,6 C 13,3 C 98 % 1011,8 hPa 0,0 l/m 0 min 2 min 45 W/m 8,4 km/h (2 Bft)
17.10.2014 10:08 14,6 C 13,3 C 98 % 1011,9 hPa 0,6 l/m 0 min 2 min 41 W/m 12,6 km/h (3 Bft)
17.10.2014 10:10 14,6 C 13,3 C 98 % 1011,9 hPa 0,2 l/m 0 min 2 min 47 W/m 14,6 km/h (3 Bft)
17.10.2014 10:12 14,6 C 13,3 C 98 % 1011,9 hPa 0,2 l/m 0 min 2 min 59 W/m 14,6 km/h (3 Bft)
17.10.2014 10:14 14,7 C 13,3 C 98 % 1011,9 hPa 0,2 l/m 0 min 2 min 80 W/m 14,6 km/h (3 Bft)
17.10.2014 10:16 14,7 C 13,3 C 98 % 1011,9 hPa 0,0 l/m 0 min 2 min 85 W/m 12,6 km/h (3 Bft)
17.10.2014 10:18 14,7 C 13,3 C 98 % 1012,0 hPa 0,0 l/m 0 min 0 min 103 W/m 14,6 km/h (3 Bft)
17.10.2014 10:20 14,7 C 13,3 C 98 % 1012,0 hPa 0,0 l/m 0 min 0 min 111 W/m 14,6 km/h (3 Bft)
17.10.2014 10:22 14,7 C 13,3 C 98 % 1012,1 hPa 0,0 l/m 2 min 0 min 136 W/m 14,6 km/h (3 Bft)
17.10.2014 10:24 14,8 C 13,3 C 98 % 1012,2 hPa 0,0 l/m 0 min 0 min 124 W/m 16,7 km/h (3 Bft)
17.10.2014 10:26 14,8 C 13,3 C 98 % 1012,2 hPa 0,0 l/m 0 min 0 min 78 W/m 14,6 km/h (3 Bft)
17.10.2014 10:28 14,8 C 13,3 C 98 % 1012,3 hPa 0,0 l/m 0 min 0 min 88 W/m 14,6 km/h (3 Bft)
17.10.2014 10:30 14,8 C 13,3 C 98 % 1012,2 hPa 0,0 l/m 0 min 0 min 122 W/m 23,0 km/h (4 Bft)
17.10.2014 10:32 14,8 C 13,3 C 98 % 1012,3 hPa 0,0 l/m 2 min 0 min 139 W/m 14,6 km/h (3 Bft)
17.10.2014 10:34 14,8 C 13,3 C 98 % 1012,2 hPa 0,0 l/m 2 min 0 min 150 W/m 25,1 km/h (4 Bft)
17.10.2014 10:36 14,8 C 13,9 C 98 % 1012,3 hPa 0,0 l/m 2 min 0 min 238 W/m 18,8 km/h (3 Bft)
17.10.2014 10:38 14,9 C 13,9 C 98 % 1012,4 hPa 0,0 l/m 2 min 0 min 250 W/m 20,9 km/h (4 Bft)
17.10.2014 10:40 14,9 C 13,9 C 98 % 1012,4 hPa 0,0 l/m 0 min 0 min 129 W/m 20,9 km/h (4 Bft)
17.10.2014 10:42 14,9 C 13,9 C 98 % 1012,4 hPa 0,0 l/m 0 min 0 min 124 W/m 14,6 km/h (3 Bft)
17.10.2014 10:44 15,0 C 13,9 C 98 % 1012,3 hPa 0,0 l/m 0 min 0 min 137 W/m 12,6 km/h (3 Bft)
17.10.2014 10:46 15,0 C 13,9 C 98 % 1012,4 hPa 0,0 l/m 2 min 0 min 160 W/m 16,7 km/h (3 Bft)
17.10.2014 10:48 15,0 C 13,9 C 98 % 1012,4 hPa 0,0 l/m 2 min 0 min 167 W/m 20,9 km/h (4 Bft)
17.10.2014 10:50 15,1 C 13,9 C 98 % 1012,4 hPa 0,0 l/m 2 min 0 min 196 W/m 20,9 km/h (4 Bft)
17.10.2014 10:52 15,1 C 13,9 C 98 % 1012,4 hPa 0,0 l/m 2 min 0 min 187 W/m 14,6 km/h (3 Bft)
17.10.2014 10:54 15,1 C 13,9 C 98 % 1012,4 hPa 0,0 l/m 2 min 0 min 214 W/m 12,6 km/h (3 Bft)
17.10.2014 10:56 15,1 C 13,9 C 98 % 1012,4 hPa 0,0 l/m 2 min 0 min 206 W/m 20,9 km/h (4 Bft)
17.10.2014 10:58 15,2 C 13,9 C 98 % 1012,5 hPa 0,0 l/m 2 min 0 min 208 W/m 14,6 km/h (3 Bft)
17.10.2014 11:00 15,2 C 13,9 C 98 % 1012,5 hPa 0,0 l/m 2 min 0 min 237 W/m 12,6 km/h (3 Bft)
17.10.2014 11:02 15,2 C 13,9 C 98 % 1012,5 hPa 0,0 l/m 2 min 0 min 216 W/m 16,7 km/h (3 Bft)
17.10.2014 11:04 15,2 C 13,9 C 98 % 1012,6 hPa 0,0 l/m 0 min 0 min 124 W/m 10,5 km/h (2 Bft)
17.10.2014 11:06 15,3 C 13,9 C 98 % 1012,7 hPa 0,0 l/m 0 min 0 min 146 W/m 10,5 km/h (2 Bft)
17.10.2014 11:08 15,3 C 13,9 C 98 % 1012,6 hPa 0,0 l/m 0 min 0 min 131 W/m 14,6 km/h (3 Bft)
17.10.2014 11:10 15,3 C 13,9 C 98 % 1012,7 hPa 0,0 l/m 0 min 0 min 117 W/m 12,6 km/h (3 Bft)
17.10.2014 11:12 15,3 C 13,9 C 98 % 1012,7 hPa 0,0 l/m 0 min 0 min 124 W/m 18,8 km/h (3 Bft)
17.10.2014 11:14 15,3 C 13,9 C 98 % 1012,7 hPa 0,0 l/m 0 min 0 min 157 W/m 14,6 km/h (3 Bft)
17.10.2014 11:16 15,3 C 13,9 C 98 % 1012,6 hPa 0,0 l/m 2 min 0 min 170 W/m 14,6 km/h (3 Bft)
17.10.2014 11:18 15,3 C 13,9 C 98 % 1012,7 hPa 0,0 l/m 2 min 0 min 202 W/m 14,6 km/h (3 Bft)
17.10.2014 11:20 15,3 C 13,9 C 98 % 1012,7 hPa 0,0 l/m 2 min 0 min 177 W/m 12,6 km/h (3 Bft)
17.10.2014 11:22 15,3 C 13,9 C 98 % 1012,8 hPa 0,0 l/m 2 min 0 min 213 W/m 18,8 km/h (3 Bft)
17.10.2014 11:24 15,4 C 13,9 C 98 % 1012,8 hPa 0,0 l/m 2 min 0 min 255 W/m 20,9 km/h (4 Bft)
17.10.2014 11:26 15,4 C 14,4 C 98 % 1012,9 hPa 0,0 l/m 2 min 0 min 195 W/m 12,6 km/h (3 Bft)
17.10.2014 11:28 15,4 C 13,9 C 98 % 1012,9 hPa 0,0 l/m 0 min 0 min 161 W/m 16,7 km/h (3 Bft)
17.10.2014 11:30 15,5 C 13,9 C 98 % 1013,0 hPa 0,0 l/m 0 min 0 min 164 W/m 16,7 km/h (3 Bft)
17.10.2014 11:32 15,5 C 13,9 C 98 % 1013,0 hPa 0,0 l/m 2 min 0 min 193 W/m 18,8 km/h (3 Bft)
17.10.2014 11:34 15,5 C 13,9 C 98 % 1012,9 hPa 0,0 l/m 2 min 0 min 213 W/m 27,2 km/h (4 Bft)
17.10.2014 11:36 15,5 C 13,9 C 98 % 1013,1 hPa 0,0 l/m 2 min 0 min 208 W/m 18,8 km/h (3 Bft)
17.10.2014 11:38 15,5 C 13,9 C 98 % 1013,1 hPa 0,0 l/m 2 min 0 min 236 W/m 23,0 km/h (4 Bft)
17.10.2014 11:40 15,5 C 14,4 C 98 % 1013,1 hPa 0,0 l/m 2 min 0 min 249 W/m 10,5 km/h (2 Bft)
17.10.2014 11:42 15,6 C 14,4 C 98 % 1013,2 hPa 0,0 l/m 2 min 0 min 200 W/m 14,6 km/h (3 Bft)
17.10.2014 11:44 15,6 C 14,4 C 98 % 1013,2 hPa 0,0 l/m 2 min 0 min 326 W/m 12,6 km/h (3 Bft)
17.10.2014 11:46 15,7 C 14,4 C 98 % 1013,2 hPa 0,0 l/m 2 min 0 min 392 W/m 14,6 km/h (3 Bft)
17.10.2014 11:48 15,8 C 14,4 C 97 % 1013,3 hPa 0,0 l/m 2 min 0 min 381 W/m 12,6 km/h (3 Bft)
17.10.2014 11:50 15,8 C 14,4 C 97 % 1013,2 hPa 0,0 l/m 2 min 0 min 283 W/m 18,8 km/h (3 Bft)
17.10.2014 11:52 15,9 C 14,4 C 97 % 1013,2 hPa 0,0 l/m 2 min 0 min 276 W/m 20,9 km/h (4 Bft)
17.10.2014 11:54 16,0 C 14,4 C 97 % 1013,2 hPa 0,0 l/m 2 min 0 min 229 W/m 12,6 km/h (3 Bft)
17.10.2014 11:56 16,1 C 14,4 C 97 % 1013,2 hPa 0,0 l/m 0 min 0 min 177 W/m 18,8 km/h (3 Bft)
17.10.2014 11:58 16,0 C 14,4 C 97 % 1013,3 hPa 0,0 l/m 0 min 0 min 170 W/m 20,9 km/h (4 Bft)
17.10.2014 12:00 16,1 C 14,4 C 97 % 1013,4 hPa 0,0 l/m 2 min 0 min 233 W/m 25,1 km/h (4 Bft)
17.10.2014 12:02 16,1 C 14,4 C 97 % 1013,4 hPa 0,0 l/m 2 min 0 min 355 W/m 25,1 km/h (4 Bft)
17.10.2014 12:06 16,1 C 14,4 C 96 % 1013,6 hPa 0,0 l/m 2 min 0 min 257 W/m 25,1 km/h (4 Bft)
17.10.2014 12:08 16,2 C 14,4 C 96 % 1013,5 hPa 0,0 l/m 2 min 0 min 230 W/m 16,7 km/h (3 Bft)
17.10.2014 12:10 16,2 C 14,4 C 96 % 1013,6 hPa 0,0 l/m 2 min 0 min 251 W/m 18,8 km/h (3 Bft)
17.10.2014 12:12 16,3 C 14,4 C 95 % 1013,5 hPa 0,0 l/m 0 min 0 min 170 W/m 23,0 km/h (4 Bft)
17.10.2014 12:14 16,3 C 14,4 C 95 % 1013,6 hPa 0,0 l/m 0 min 0 min 112 W/m 25,1 km/h (4 Bft)
17.10.2014 12:16 16,3 C 13,9 C 95 % 1013,7 hPa 0,0 l/m 0 min 0 min 94 W/m 18,8 km/h (3 Bft)
17.10.2014 12:18 16,3 C 13,9 C 94 % 1013,7 hPa 0,0 l/m 0 min 0 min 104 W/m 14,6 km/h (3 Bft)
17.10.2014 12:20 16,3 C 13,9 C 94 % 1013,7 hPa 0,0 l/m 0 min 0 min 138 W/m 20,9 km/h (4 Bft)
17.10.2014 12:22 16,3 C 13,9 C 94 % 1013,8 hPa 0,0 l/m 0 min 0 min 166 W/m 16,7 km/h (3 Bft)
17.10.2014 12:24 16,3 C 13,9 C 93 % 1013,7 hPa 0,0 l/m 2 min 0 min 207 W/m 16,7 km/h (3 Bft)
17.10.2014 12:26 16,4 C 14,4 C 93 % 1013,8 hPa 0,0 l/m 2 min 0 min 410 W/m 10,5 km/h (2 Bft)
17.10.2014 12:28 16,4 C 15,0 C 93 % 1013,9 hPa 0,0 l/m 2 min 0 min 555 W/m 10,5 km/h (2 Bft)
17.10.2014 12:30 16,6 C 14,4 C 93 % 1014,0 hPa 0,0 l/m 2 min 0 min 213 W/m 14,6 km/h (3 Bft)
17.10.2014 12:32 16,6 C 14,4 C 93 % 1014,0 hPa 0,0 l/m 0 min 0 min 158 W/m 16,7 km/h (3 Bft)
17.10.2014 12:34 16,6 C 14,4 C 93 % 1014,1 hPa 0,0 l/m 0 min 0 min 179 W/m 25,1 km/h (4 Bft)
17.10.2014 12:36 16,6 C 14,4 C 92 % 1014,1 hPa 0,0 l/m 2 min 0 min 220 W/m 20,9 km/h (4 Bft)
17.10.2014 12:38 16,6 C 14,4 C 92 % 1014,1 hPa 0,0 l/m 2 min 0 min 218 W/m 25,1 km/h (4 Bft)
17.10.2014 12:40 16,6 C 13,9 C 91 % 1014,1 hPa 0,0 l/m 2 min 0 min 236 W/m 18,8 km/h (3 Bft)
17.10.2014 12:42 16,6 C 13,9 C 91 % 1014,0 hPa 0,0 l/m 2 min 0 min 241 W/m 23,0 km/h (4 Bft)
17.10.2014 12:44 16,7 C 13,9 C 91 % 1014,1 hPa 0,0 l/m 2 min 0 min 258 W/m 20,9 km/h (4 Bft)
17.10.2014 12:46 16,7 C 13,9 C 90 % 1014,1 hPa 0,0 l/m 0 min 0 min 186 W/m 18,8 km/h (3 Bft)
17.10.2014 12:48 16,7 C 13,9 C 90 % 1014,1 hPa 0,0 l/m 0 min 0 min 166 W/m 18,8 km/h (3 Bft)
17.10.2014 12:50 16,7 C 14,4 C 90 % 1014,1 hPa 0,0 l/m 2 min 0 min 380 W/m 18,8 km/h (3 Bft)
17.10.2014 12:52 16,8 C 14,4 C 90 % 1014,1 hPa 0,0 l/m 2 min 0 min 463 W/m 18,8 km/h (3 Bft)
17.10.2014 12:54 16,8 C 14,4 C 90 % 1014,1 hPa 0,0 l/m 2 min 0 min 414 W/m 16,7 km/h (3 Bft)
17.10.2014 12:56 16,9 C 14,4 C 90 % 1014,2 hPa 0,0 l/m 2 min 0 min 484 W/m 20,9 km/h (4 Bft)
17.10.2014 12:58 17,0 C 14,4 C 90 % 1014,1 hPa 0,0 l/m 2 min 0 min 522 W/m 29,3 km/h (5 Bft)
17.10.2014 13:00 17,1 C 14,4 C 89 % 1014,2 hPa 0,0 l/m 2 min 0 min 549 W/m 25,1 km/h (4 Bft)
17.10.2014 13:02 17,2 C 15,0 C 89 % 1014,2 hPa 0,0 l/m 2 min 0 min 581 W/m 20,9 km/h (4 Bft)
17.10.2014 13:04 17,3 C 15,0 C 88 % 1014,3 hPa 0,0 l/m 2 min 0 min 560 W/m 18,8 km/h (3 Bft)
17.10.2014 13:06 17,4 C 15,0 C 89 % 1014,3 hPa 0,0 l/m 2 min 0 min 427 W/m 25,1 km/h (4 Bft)
17.10.2014 13:08 17,6 C 15,0 C 89 % 1014,3 hPa 0,0 l/m 2 min 0 min 396 W/m 18,8 km/h (3 Bft)
17.10.2014 13:10 17,7 C 15,6 C 89 % 1014,3 hPa 0,0 l/m 2 min 0 min 646 W/m 18,8 km/h (3 Bft)
17.10.2014 13:12 17,8 C 15,6 C 88 % 1014,4 hPa 0,0 l/m 2 min 0 min 702 W/m 18,8 km/h (3 Bft)
17.10.2014 13:14 18,0 C 15,6 C 88 % 1014,3 hPa 0,0 l/m 2 min 0 min 708 W/m 16,7 km/h (3 Bft)
17.10.2014 13:16 18,1 C 15,6 C 87 % 1014,4 hPa 0,0 l/m 2 min 0 min 701 W/m 37,7 km/h (5 Bft)
17.10.2014 13:18 18,2 C 15,0 C 86 % 1014,5 hPa 0,0 l/m 2 min 0 min 678 W/m 27,2 km/h (4 Bft)
17.10.2014 13:20 18,3 C 15,6 C 84 % 1014,5 hPa 0,0 l/m 2 min 0 min 510 W/m 25,1 km/h (4 Bft)
17.10.2014 13:22 18,4 C 15,6 C 84 % 1014,5 hPa 0,0 l/m 2 min 0 min 534 W/m 23,0 km/h (4 Bft)
17.10.2014 13:24 18,6 C 15,6 C 84 % 1014,5 hPa 0,0 l/m 2 min 0 min 458 W/m 18,8 km/h (3 Bft)
17.10.2014 13:26 18,6 C 15,0 C 83 % 1014,5 hPa 0,0 l/m 2 min 0 min 351 W/m 29,3 km/h (5 Bft)
17.10.2014 13:28 18,6 C 15,0 C 82 % 1014,5 hPa 0,0 l/m 0 min 0 min 202 W/m 33,5 km/h (5 Bft)
17.10.2014 13:30 18,6 C 14,4 C 81 % 1014,5 hPa 0,0 l/m 2 min 0 min 210 W/m 29,3 km/h (5 Bft)
17.10.2014 13:32 18,5 C 14,4 C 80 % 1014,5 hPa 0,0 l/m 2 min 0 min 232 W/m 35,6 km/h (5 Bft)
17.10.2014 13:34 18,4 C 14,4 C 80 % 1014,5 hPa 0,0 l/m 2 min 0 min 232 W/m 27,2 km/h (4 Bft)
17.10.2014 13:36 18,4 C 14,4 C 81 % 1014,5 hPa 0,0 l/m 2 min 0 min 399 W/m 20,9 km/h (4 Bft)
17.10.2014 13:38 18,4 C 15,0 C 81 % 1014,4 hPa 0,0 l/m 2 min 0 min 522 W/m 23,0 km/h (4 Bft)
17.10.2014 13:40 18,4 C 15,0 C 81 % 1014,4 hPa 0,0 l/m 2 min 0 min 479 W/m 20,9 km/h (4 Bft)
17.10.2014 13:42 18,5 C 15,0 C 81 % 1014,4 hPa 0,0 l/m 2 min 0 min 448 W/m 20,9 km/h (4 Bft)
17.10.2014 13:44 18,6 C 15,0 C 82 % 1014,4 hPa 0,0 l/m 2 min 0 min 481 W/m 16,7 km/h (3 Bft)
17.10.2014 13:46 18,6 C 15,6 C 82 % 1014,4 hPa 0,0 l/m 2 min 0 min 591 W/m 10,5 km/h (2 Bft)
17.10.2014 13:48 18,7 C 16,1 C 83 % 1014,5 hPa 0,0 l/m 2 min 0 min 645 W/m 14,6 km/h (3 Bft)
17.10.2014 13:50 18,8 C 16,7 C 82 % 1014,4 hPa 0,0 l/m 2 min 0 min 608 W/m 20,9 km/h (4 Bft)
17.10.2014 13:52 18,9 C 16,7 C 82 % 1014,4 hPa 0,0 l/m 2 min 0 min 564 W/m 16,7 km/h (3 Bft)
17.10.2014 13:54 19,0 C 16,7 C 82 % 1014,4 hPa 0,0 l/m 2 min 0 min 520 W/m 16,7 km/h (3 Bft)
17.10.2014 13:56 19,1 C 16,7 C 81 % 1014,5 hPa 0,0 l/m 2 min 0 min 531 W/m 18,8 km/h (3 Bft)
17.10.2014 13:58 19,1 C 16,1 C 80 % 1014,4 hPa 0,0 l/m 2 min 0 min 321 W/m 20,9 km/h (4 Bft)
17.10.2014 14:00 19,0 C 16,1 C 79 % 1014,5 hPa 0,0 l/m 0 min 0 min 167 W/m 18,8 km/h (3 Bft)
17.10.2014 14:02 18,9 C 16,1 C 78 % 1014,5 hPa 0,0 l/m 2 min 0 min 468 W/m 20,9 km/h (4 Bft)
17.10.2014 14:04 18,9 C 16,1 C 79 % 1014,5 hPa 0,0 l/m 2 min 0 min 371 W/m 16,7 km/h (3 Bft)
17.10.2014 14:06 18,8 C 15,6 C 79 % 1014,5 hPa 0,0 l/m 2 min 0 min 247 W/m 18,8 km/h (3 Bft)
17.10.2014 14:08 18,8 C 15,6 C 79 % 1014,4 hPa 0,0 l/m 0 min 0 min 163 W/m 18,8 km/h (3 Bft)
17.10.2014 14:10 18,8 C 16,1 C 79 % 1014,5 hPa 0,0 l/m 2 min 0 min 315 W/m 20,9 km/h (4 Bft)
17.10.2014 14:12 18,7 C 16,1 C 79 % 1014,5 hPa 0,0 l/m 2 min 0 min 439 W/m 18,8 km/h (3 Bft)
17.10.2014 14:14 18,7 C 16,1 C 79 % 1014,4 hPa 0,0 l/m 2 min 0 min 422 W/m 25,1 km/h (4 Bft)
17.10.2014 14:16 18,7 C 15,6 C 79 % 1014,5 hPa 0,0 l/m 0 min 0 min 92 W/m 23,0 km/h (4 Bft)
17.10.2014 14:18 18,6 C 16,1 C 79 % 1014,6 hPa 0,0 l/m 0 min 0 min 171 W/m 12,6 km/h (3 Bft)
17.10.2014 14:20 18,6 C 16,1 C 80 % 1014,6 hPa 0,0 l/m 2 min 0 min 509 W/m 18,8 km/h (3 Bft)
17.10.2014 14:22 18,7 C 16,7 C 80 % 1014,6 hPa 0,0 l/m 2 min 0 min 502 W/m 23,0 km/h (4 Bft)
17.10.2014 14:24 18,7 C 16,7 C 80 % 1014,6 hPa 0,0 l/m 2 min 0 min 515 W/m 23,0 km/h (4 Bft)
17.10.2014 14:26 18,8 C 16,7 C 80 % 1014,6 hPa 0,0 l/m 2 min 0 min 530 W/m 16,7 km/h (3 Bft)
17.10.2014 14:28 18,9 C 16,7 C 80 % 1014,6 hPa 0,0 l/m 2 min 0 min 541 W/m 25,1 km/h (4 Bft)
17.10.2014 14:30 18,9 C 16,7 C 80 % 1014,6 hPa 0,0 l/m 2 min 0 min 581 W/m 23,0 km/h (4 Bft)
17.10.2014 14:32 19,0 C 16,7 C 79 % 1014,6 hPa 0,0 l/m 2 min 0 min 270 W/m 27,2 km/h (4 Bft)
17.10.2014 14:34 19,0 C 16,7 C 79 % 1014,6 hPa 0,0 l/m 0 min 0 min 169 W/m 23,0 km/h (4 Bft)
17.10.2014 14:36 18,9 C 16,7 C 78 % 1014,5 hPa 0,0 l/m 2 min 0 min 218 W/m 23,0 km/h (4 Bft)
17.10.2014 14:38 18,9 C 16,7 C 79 % 1014,6 hPa 0,0 l/m 2 min 0 min 346 W/m 18,8 km/h (3 Bft)
17.10.2014 14:40 19,0 C 16,7 C 79 % 1014,5 hPa 0,0 l/m 2 min 0 min 547 W/m 12,6 km/h (3 Bft)
17.10.2014 14:42 19,1 C 16,7 C 80 % 1014,5 hPa 0,0 l/m 2 min 0 min 452 W/m 20,9 km/h (4 Bft)
17.10.2014 14:44 19,1 C 17,2 C 79 % 1014,5 hPa 0,0 l/m 2 min 0 min 362 W/m 27,2 km/h (4 Bft)
17.10.2014 14:46 19,1 C 16,7 C 79 % 1014,6 hPa 0,0 l/m 2 min 0 min 486 W/m 23,0 km/h (4 Bft)
17.10.2014 14:48 19,2 C 16,7 C 79 % 1014,6 hPa 0,0 l/m 2 min 0 min 459 W/m 20,9 km/h (4 Bft)
17.10.2014 14:50 19,2 C 16,7 C 79 % 1014,5 hPa 0,0 l/m 2 min 0 min 452 W/m 16,7 km/h (3 Bft)
17.10.2014 14:52 19,3 C 16,7 C 79 % 1014,5 hPa 0,0 l/m 2 min 0 min 440 W/m 14,6 km/h (3 Bft)
17.10.2014 14:54 19,3 C 16,7 C 79 % 1014,6 hPa 0,0 l/m 2 min 0 min 443 W/m 25,1 km/h (4 Bft)
17.10.2014 14:56 19,3 C 16,7 C 79 % 1014,6 hPa 0,0 l/m 2 min 0 min 445 W/m 23,0 km/h (4 Bft)
17.10.2014 14:58 19,3 C 16,7 C 78 % 1014,7 hPa 0,0 l/m 2 min 0 min 440 W/m 20,9 km/h (4 Bft)
17.10.2014 15:00 19,3 C 16,7 C 79 % 1014,6 hPa 0,0 l/m 2 min 0 min 447 W/m 20,9 km/h (4 Bft)
17.10.2014 15:02 19,3 C 16,7 C 79 % 1014,6 hPa 0,0 l/m 2 min 0 min 447 W/m 25,1 km/h (4 Bft)
17.10.2014 15:04 19,3 C 17,2 C 79 % 1014,7 hPa 0,0 l/m 2 min 0 min 461 W/m 18,8 km/h (3 Bft)
17.10.2014 15:06 19,4 C 17,2 C 79 % 1014,6 hPa 0,0 l/m 2 min 0 min 376 W/m 18,8 km/h (3 Bft)
17.10.2014 15:08 19,4 C 16,7 C 79 % 1014,7 hPa 0,0 l/m 0 min 0 min 129 W/m 25,1 km/h (4 Bft)
17.10.2014 15:10 19,3 C 16,7 C 79 % 1014,7 hPa 0,0 l/m 0 min 0 min 122 W/m 25,1 km/h (4 Bft)
17.10.2014 15:12 19,2 C 16,1 C 78 % 1014,8 hPa 0,0 l/m 0 min 0 min 97 W/m 23,0 km/h (4 Bft)
17.10.2014 15:14 19,2 C 16,1 C 78 % 1014,8 hPa 0,0 l/m 0 min 0 min 112 W/m 20,9 km/h (4 Bft)
17.10.2014 15:16 19,1 C 16,1 C 78 % 1014,8 hPa 0,0 l/m 0 min 0 min 142 W/m 14,6 km/h (3 Bft)
17.10.2014 15:18 19,0 C 16,7 C 79 % 1014,8 hPa 0,0 l/m 2 min 0 min 262 W/m 10,5 km/h (2 Bft)
17.10.2014 15:20 19,0 C 16,7 C 79 % 1014,8 hPa 0,0 l/m 2 min 0 min 527 W/m 29,3 km/h (5 Bft)
17.10.2014 15:22 19,0 C 17,2 C 79 % 1014,9 hPa 0,0 l/m 2 min 0 min 513 W/m 20,9 km/h (4 Bft)
17.10.2014 15:24 19,0 C 17,2 C 80 % 1014,8 hPa 0,0 l/m 2 min 0 min 488 W/m 18,8 km/h (3 Bft)
17.10.2014 15:26 19,1 C 17,2 C 80 % 1014,8 hPa 0,0 l/m 2 min 0 min 447 W/m 16,7 km/h (3 Bft)
17.10.2014 15:28 19,2 C 17,2 C 80 % 1014,8 hPa 0,0 l/m 2 min 0 min 426 W/m 25,1 km/h (4 Bft)
17.10.2014 15:30 19,2 C 17,2 C 80 % 1014,9 hPa 0,0 l/m 2 min 0 min 393 W/m 25,1 km/h (4 Bft)
17.10.2014 15:32 19,2 C 17,2 C 79 % 1014,9 hPa 0,0 l/m 2 min 0 min 388 W/m 14,6 km/h (3 Bft)
17.10.2014 15:34 19,3 C 17,2 C 79 % 1015,0 hPa 0,0 l/m 2 min 0 min 396 W/m 16,7 km/h (3 Bft)
17.10.2014 15:36 19,3 C 17,2 C 80 % 1014,9 hPa 0,0 l/m 2 min 0 min 413 W/m 14,6 km/h (3 Bft)
17.10.2014 15:38 19,4 C 17,2 C 79 % 1015,0 hPa 0,0 l/m 2 min 0 min 409 W/m 18,8 km/h (3 Bft)
17.10.2014 15:40 19,4 C 17,2 C 79 % 1014,9 hPa 0,0 l/m 2 min 0 min 396 W/m 18,8 km/h (3 Bft)
17.10.2014 15:42 19,5 C 17,2 C 79 % 1014,9 hPa 0,0 l/m 2 min 0 min 382 W/m 25,1 km/h (4 Bft)
17.10.2014 15:44 19,5 C 17,2 C 78 % 1014,9 hPa 0,0 l/m 2 min 0 min 360 W/m 16,7 km/h (3 Bft)
17.10.2014 15:46 19,6 C 16,7 C 78 % 1015,0 hPa 0,0 l/m 2 min 0 min 351 W/m 16,7 km/h (3 Bft)
17.10.2014 15:48 19,6 C 16,7 C 77 % 1014,8 hPa 0,0 l/m 2 min 0 min 344 W/m 16,7 km/h (3 Bft)
17.10.2014 15:50 19,6 C 16,7 C 77 % 1014,9 hPa 0,0 l/m 2 min 0 min 341 W/m 23,0 km/h (4 Bft)
17.10.2014 15:52 19,6 C 16,7 C 77 % 1014,9 hPa 0,0 l/m 2 min 0 min 329 W/m 20,9 km/h (4 Bft)
17.10.2014 15:54 19,7 C 16,7 C 77 % 1015,0 hPa 0,0 l/m 2 min 0 min 335 W/m 20,9 km/h (4 Bft)
17.10.2014 15:56 19,7 C 16,7 C 77 % 1015,0 hPa 0,0 l/m 2 min 0 min 327 W/m 16,7 km/h (3 Bft)
17.10.2014 15:58 19,7 C 16,7 C 77 % 1015,0 hPa 0,0 l/m 2 min 0 min 321 W/m 20,9 km/h (4 Bft)
17.10.2014 16:00 19,8 C 16,7 C 77 % 1015,0 hPa 0,0 l/m 2 min 0 min 312 W/m 18,8 km/h (3 Bft)
17.10.2014 16:02 19,7 C 16,7 C 76 % 1015,0 hPa 0,0 l/m 2 min 0 min 318 W/m 16,7 km/h (3 Bft)
17.10.2014 16:04 19,8 C 16,7 C 76 % 1015,0 hPa 0,0 l/m 2 min 0 min 310 W/m 16,7 km/h (3 Bft)
17.10.2014 16:06 19,8 C 16,7 C 76 % 1015,1 hPa 0,0 l/m 2 min 0 min 318 W/m 18,8 km/h (3 Bft)
17.10.2014 16:08 19,8 C 16,7 C 77 % 1015,1 hPa 0,0 l/m 2 min 0 min 317 W/m 14,6 km/h (3 Bft)
17.10.2014 16:10 19,8 C 16,7 C 76 % 1015,2 hPa 0,0 l/m 2 min 0 min 292 W/m 18,8 km/h (3 Bft)
17.10.2014 16:12 19,8 C 16,7 C 76 % 1015,2 hPa 0,0 l/m 2 min 0 min 285 W/m 27,2 km/h (4 Bft)
17.10.2014 16:14 19,7 C 16,7 C 75 % 1015,2 hPa 0,0 l/m 2 min 0 min 286 W/m 27,2 km/h (4 Bft)
17.10.2014 16:16 19,7 C 16,7 C 76 % 1015,2 hPa 0,0 l/m 2 min 0 min 279 W/m 20,9 km/h (4 Bft)
17.10.2014 16:18 19,7 C 16,7 C 76 % 1015,2 hPa 0,0 l/m 2 min 0 min 252 W/m 23,0 km/h (4 Bft)
17.10.2014 16:20 19,7 C 16,7 C 76 % 1015,3 hPa 0,0 l/m 2 min 0 min 144 W/m 23,0 km/h (4 Bft)
17.10.2014 16:22 19,7 C 16,7 C 76 % 1015,2 hPa 0,0 l/m 2 min 0 min 289 W/m 20,9 km/h (4 Bft)
17.10.2014 16:24 19,6 C 16,7 C 76 % 1015,2 hPa 0,0 l/m 2 min 0 min 279 W/m 18,8 km/h (3 Bft)
17.10.2014 16:26 19,6 C 16,7 C 77 % 1015,2 hPa 0,0 l/m 2 min 0 min 260 W/m 16,7 km/h (3 Bft)
17.10.2014 16:28 19,6 C 16,7 C 77 % 1015,2 hPa 0,0 l/m 2 min 0 min 241 W/m 18,8 km/h (3 Bft)
17.10.2014 16:30 19,6 C 16,7 C 77 % 1015,2 hPa 0,0 l/m 2 min 0 min 224 W/m 23,0 km/h (4 Bft)
17.10.2014 16:32 19,6 C 16,7 C 77 % 1015,2 hPa 0,0 l/m 2 min 0 min 221 W/m 18,8 km/h (3 Bft)
17.10.2014 16:34 19,5 C 16,7 C 77 % 1015,2 hPa 0,0 l/m 2 min 0 min 221 W/m 20,9 km/h (4 Bft)
17.10.2014 16:36 19,5 C 16,7 C 76 % 1015,3 hPa 0,0 l/m 2 min 0 min 216 W/m 14,6 km/h (3 Bft)
17.10.2014 16:38 19,4 C 16,7 C 76 % 1015,3 hPa 0,0 l/m 2 min 0 min 213 W/m 18,8 km/h (3 Bft)
17.10.2014 16:40 19,4 C 16,7 C 76 % 1015,3 hPa 0,0 l/m 2 min 0 min 213 W/m 20,9 km/h (4 Bft)
17.10.2014 16:42 19,3 C 16,1 C 77 % 1015,4 hPa 0,0 l/m 2 min 0 min 214 W/m 12,6 km/h (3 Bft)
17.10.2014 16:44 19,3 C 16,1 C 77 % 1015,3 hPa 0,0 l/m 2 min 0 min 207 W/m 10,5 km/h (2 Bft)
17.10.2014 16:46 19,3 C 16,1 C 77 % 1015,3 hPa 0,0 l/m 2 min 0 min 194 W/m 12,6 km/h (3 Bft)
17.10.2014 16:48 19,3 C 16,1 C 77 % 1015,4 hPa 0,0 l/m 2 min 0 min 185 W/m 12,6 km/h (3 Bft)
17.10.2014 16:50 19,3 C 16,1 C 77 % 1015,4 hPa 0,0 l/m 2 min 0 min 176 W/m 12,6 km/h (3 Bft)
17.10.2014 16:52 19,3 C 16,1 C 77 % 1015,4 hPa 0,0 l/m 2 min 0 min 172 W/m 12,6 km/h (3 Bft)
17.10.2014 16:54 19,3 C 16,1 C 77 % 1015,4 hPa 0,0 l/m 2 min 0 min 172 W/m 14,6 km/h (3 Bft)
17.10.2014 16:56 19,3 C 16,1 C 78 % 1015,5 hPa 0,0 l/m 2 min 0 min 164 W/m 10,5 km/h (2 Bft)
17.10.2014 16:58 19,3 C 16,1 C 78 % 1015,5 hPa 0,0 l/m 2 min 0 min 156 W/m 14,6 km/h (3 Bft)
17.10.2014 17:00 19,3 C 16,1 C 77 % 1015,5 hPa 0,0 l/m 2 min 0 min 119 W/m 14,6 km/h (3 Bft)
17.10.2014 17:02 19,2 C 16,1 C 77 % 1015,5 hPa 0,0 l/m 0 min 0 min 63 W/m 12,6 km/h (3 Bft)
17.10.2014 17:04 19,2 C 16,1 C 77 % 1015,5 hPa 0,0 l/m 0 min 0 min 60 W/m 12,6 km/h (3 Bft)
17.10.2014 17:06 19,2 C 15,6 C 77 % 1015,6 hPa 0,0 l/m 0 min 0 min 66 W/m 8,4 km/h (2 Bft)
17.10.2014 17:08 19,1 C 15,6 C 78 % 1015,6 hPa 0,0 l/m 0 min 0 min 70 W/m 8,4 km/h (2 Bft)
17.10.2014 17:10 19,1 C 15,6 C 78 % 1015,6 hPa 0,0 l/m 0 min 0 min 83 W/m 8,4 km/h (2 Bft)
17.10.2014 17:12 19,0 C 15,6 C 78 % 1015,6 hPa 0,0 l/m 2 min 0 min 148 W/m 8,4 km/h (2 Bft)
17.10.2014 17:14 18,9 C 15,6 C 78 % 1015,6 hPa 0,0 l/m 2 min 0 min 108 W/m 8,4 km/h (2 Bft)
17.10.2014 17:16 18,9 C 15,6 C 79 % 1015,6 hPa 0,0 l/m 2 min 0 min 111 W/m 8,4 km/h (2 Bft)
17.10.2014 17:18 18,9 C 15,6 C 79 % 1015,5 hPa 0,0 l/m 2 min 0 min 147 W/m 18,8 km/h (3 Bft)
17.10.2014 17:20 18,8 C 16,1 C 79 % 1015,6 hPa 0,0 l/m 2 min 0 min 164 W/m 12,6 km/h (3 Bft)
17.10.2014 17:22 18,8 C 16,1 C 79 % 1015,6 hPa 0,0 l/m 2 min 0 min 144 W/m 8,4 km/h (2 Bft)
17.10.2014 17:24 18,7 C 16,1 C 79 % 1015,6 hPa 0,0 l/m 2 min 0 min 98 W/m 12,6 km/h (3 Bft)
17.10.2014 17:26 18,7 C 16,1 C 79 % 1015,6 hPa 0,0 l/m 2 min 0 min 83 W/m 14,6 km/h (3 Bft)
17.10.2014 17:28 18,6 C 15,6 C 80 % 1015,6 hPa 0,0 l/m 2 min 0 min 75 W/m 12,6 km/h (3 Bft)
17.10.2014 17:30 18,5 C 15,6 C 80 % 1015,6 hPa 0,0 l/m 2 min 0 min 71 W/m 10,5 km/h (2 Bft)
17.10.2014 17:32 18,5 C 15,6 C 80 % 1015,6 hPa 0,0 l/m 2 min 0 min 65 W/m 14,6 km/h (3 Bft)
17.10.2014 17:34 18,4 C 15,6 C 80 % 1015,6 hPa 0,0 l/m 2 min 0 min 61 W/m 12,6 km/h (3 Bft)
17.10.2014 17:36 18,4 C 15,6 C 80 % 1015,6 hPa 0,0 l/m 2 min 0 min 67 W/m 10,5 km/h (2 Bft)
17.10.2014 17:38 18,3 C 15,6 C 80 % 1015,6 hPa 0,0 l/m 2 min 0 min 61 W/m 10,5 km/h (2 Bft)
17.10.2014 17:40 18,3 C 15,6 C 80 % 1015,6 hPa 0,0 l/m 0 min 0 min 46 W/m 10,5 km/h (2 Bft)
17.10.2014 17:42 18,2 C 15,6 C 80 % 1015,6 hPa 0,0 l/m 0 min 0 min 43 W/m 10,5 km/h (2 Bft)
17.10.2014 17:44 18,2 C 15,0 C 80 % 1015,7 hPa 0,0 l/m 0 min 0 min 41 W/m 16,7 km/h (3 Bft)
17.10.2014 17:46 18,1 C 15,0 C 81 % 1015,7 hPa 0,0 l/m 0 min 0 min 33 W/m 10,5 km/h (2 Bft)
17.10.2014 17:48 18,1 C 15,0 C 81 % 1015,6 hPa 0,0 l/m 0 min 0 min 35 W/m 12,6 km/h (3 Bft)
17.10.2014 17:50 18,0 C 15,0 C 81 % 1015,6 hPa 0,0 l/m 0 min 0 min 29 W/m 12,6 km/h (3 Bft)
17.10.2014 17:52 17,9 C 15,0 C 81 % 1015,6 hPa 0,0 l/m 0 min 0 min 24 W/m 14,6 km/h (3 Bft)
17.10.2014 17:54 17,9 C 15,0 C 81 % 1015,7 hPa 0,0 l/m 0 min 0 min 22 W/m 14,6 km/h (3 Bft)
17.10.2014 17:56 17,8 C 15,0 C 81 % 1015,6 hPa 0,0 l/m 0 min 0 min 20 W/m 14,6 km/h (3 Bft)
17.10.2014 17:58 17,7 C 15,0 C 81 % 1015,6 hPa 0,0 l/m 0 min 0 min 19 W/m 12,6 km/h (3 Bft)
17.10.2014 18:00 17,7 C 15,0 C 81 % 1015,7 hPa 0,0 l/m 0 min 0 min 18 W/m 10,5 km/h (2 Bft)
17.10.2014 18:02 17,7 C 15,0 C 81 % 1015,7 hPa 0,0 l/m 0 min 0 min 18 W/m 10,5 km/h (2 Bft)
17.10.2014 18:06 17,6 C 14,4 C 82 % 1015,8 hPa 0,0 l/m 0 min 0 min 17 W/m 8,4 km/h (2 Bft)
17.10.2014 18:08 17,5 C 14,4 C 82 % 1015,8 hPa 0,0 l/m 0 min 0 min 15 W/m 6,3 km/h (2 Bft)
17.10.2014 18:10 17,5 C 14,4 C 82 % 1015,8 hPa 0,0 l/m 0 min 0 min 14 W/m 6,3 km/h (2 Bft)
17.10.2014 18:12 17,4 C 14,4 C 82 % 1015,8 hPa 0,0 l/m 0 min 0 min 14 W/m 8,4 km/h (2 Bft)
17.10.2014 18:14 17,4 C 14,4 C 82 % 1015,7 hPa 0,0 l/m 0 min 0 min 12 W/m 6,3 km/h (2 Bft)
17.10.2014 18:16 17,4 C 14,4 C 82 % 1015,9 hPa 0,0 l/m 0 min 0 min 12 W/m 6,3 km/h (2 Bft)
17.10.2014 18:18 17,3 C 14,4 C 82 % 1015,8 hPa 0,0 l/m 0 min 0 min 11 W/m 6,3 km/h (2 Bft)
17.10.2014 18:20 17,3 C 14,4 C 83 % 1015,8 hPa 0,0 l/m 0 min 0 min 11 W/m 8,4 km/h (2 Bft)
17.10.2014 18:22 17,3 C 14,4 C 83 % 1015,9 hPa 0,0 l/m 0 min 0 min 9 W/m 10,5 km/h (2 Bft)
17.10.2014 18:24 17,2 C 14,4 C 83 % 1015,9 hPa 0,0 l/m 0 min 0 min 9 W/m 8,4 km/h (2 Bft)
17.10.2014 18:26 17,2 C 13,9 C 83 % 1015,9 hPa 0,0 l/m 0 min 0 min 8 W/m 6,3 km/h (2 Bft)
17.10.2014 18:28 17,1 C 13,9 C 83 % 1016,0 hPa 0,0 l/m 0 min 0 min 7 W/m 4,2 km/h (1 Bft)
17.10.2014 18:30 17,1 C 13,9 C 83 % 1016,0 hPa 0,0 l/m 0 min 0 min 7 W/m 8,4 km/h (2 Bft)
17.10.2014 18:32 17,1 C 13,9 C 83 % 1016,1 hPa 0,0 l/m 0 min 0 min 6 W/m 8,4 km/h (2 Bft)
17.10.2014 18:34 17,0 C 13,9 C 84 % 1016,1 hPa 0,0 l/m 0 min 0 min 5 W/m 8,4 km/h (2 Bft)
17.10.2014 18:36 16,9 C 13,9 C 84 % 1016,1 hPa 0,0 l/m 0 min 0 min 4 W/m 8,4 km/h (2 Bft)
17.10.2014 18:38 16,9 C 13,9 C 84 % 1016,1 hPa 0,0 l/m 0 min 0 min 0 W/m 8,4 km/h (2 Bft)
17.10.2014 18:40 16,9 C 13,9 C 84 % 1016,1 hPa 0,0 l/m 0 min 0 min 0 W/m 6,3 km/h (2 Bft)
17.10.2014 18:42 16,8 C 13,9 C 84 % 1016,2 hPa 0,0 l/m 0 min 0 min 0 W/m 6,3 km/h (2 Bft)
17.10.2014 18:44 16,8 C 13,9 C 84 % 1016,2 hPa 0,0 l/m 0 min 0 min 0 W/m 6,3 km/h (2 Bft)
17.10.2014 18:46 16,7 C 13,9 C 84 % 1016,2 hPa 0,0 l/m 0 min 0 min 0 W/m 6,3 km/h (2 Bft)
17.10.2014 18:48 16,7 C 13,3 C 84 % 1016,2 hPa 0,0 l/m 0 min 0 min 0 W/m 4,2 km/h (1 Bft)
17.10.2014 18:50 16,7 C 13,3 C 84 % 1016,2 hPa 0,0 l/m 0 min 0 min 0 W/m 4,2 km/h (1 Bft)
17.10.2014 18:52 16,6 C 13,3 C 84 % 1016,2 hPa 0,0 l/m 0 min 0 min 0 W/m 10,5 km/h (2 Bft)
17.10.2014 18:54 16,6 C 13,3 C 85 % 1016,2 hPa 0,0 l/m 0 min 0 min 0 W/m 6,3 km/h (2 Bft)
17.10.2014 18:56 16,5 C 13,3 C 85 % 1016,3 hPa 0,0 l/m 0 min 0 min 0 W/m 8,4 km/h (2 Bft)
17.10.2014 18:58 16,4 C 13,3 C 85 % 1016,3 hPa 0,0 l/m 0 min 0 min 0 W/m 6,3 km/h (2 Bft)
17.10.2014 19:00 16,4 C 13,3 C 85 % 1016,3 hPa 0,0 l/m 0 min 0 min 0 W/m 6,3 km/h (2 Bft)
17.10.2014 19:02 16,4 C 13,3 C 85 % 1016,3 hPa 0,0 l/m 0 min 0 min 0 W/m 6,3 km/h (2 Bft)
17.10.2014 19:04 16,3 C 13,3 C 85 % 1016,3 hPa 0,0 l/m 0 min 0 min 0 W/m 6,3 km/h (2 Bft)
17.10.2014 19:06 16,3 C 13,3 C 85 % 1016,3 hPa 0,0 l/m 0 min 0 min 0 W/m 6,3 km/h (2 Bft)
17.10.2014 19:08 16,3 C 13,3 C 86 % 1016,3 hPa 0,0 l/m 0 min 0 min 0 W/m 8,4 km/h (2 Bft)
17.10.2014 19:10 16,2 C 13,3 C 86 % 1016,3 hPa 0,0 l/m 0 min 0 min 0 W/m 6,3 km/h (2 Bft)
17.10.2014 19:12 16,2 C 12,8 C 86 % 1016,3 hPa 0,0 l/m 0 min 0 min 0 W/m 6,3 km/h (2 Bft)
17.10.2014 19:14 16,1 C 12,8 C 86 % 1016,3 hPa 0,0 l/m 0 min 0 min 0 W/m 4,2 km/h (1 Bft)
17.10.2014 19:16 16,1 C 12,8 C 86 % 1016,3 hPa 0,0 l/m 0 min 0 min 0 W/m 6,3 km/h (2 Bft)
17.10.2014 19:18 16,1 C 12,8 C 86 % 1016,4 hPa 0,0 l/m 0 min 0 min 0 W/m 6,3 km/h (2 Bft)
17.10.2014 19:20 16,0 C 12,8 C 86 % 1016,4 hPa 0,0 l/m 0 min 0 min 0 W/m 4,2 km/h (1 Bft)
17.10.2014 19:22 15,9 C 12,8 C 86 % 1016,4 hPa 0,0 l/m 0 min 0 min 0 W/m 4,2 km/h (1 Bft)
17.10.2014 19:24 15,9 C 12,8 C 86 % 1016,5 hPa 0,0 l/m 0 min 0 min 0 W/m 4,2 km/h (1 Bft)
17.10.2014 19:26 15,8 C 12,8 C 86 % 1016,6 hPa 0,0 l/m 0 min 0 min 0 W/m 2,1 km/h (1 Bft)
17.10.2014 19:28 15,8 C 12,8 C 86 % 1016,5 hPa 0,0 l/m 0 min 0 min 0 W/m 2,1 km/h (1 Bft)
17.10.2014 19:30 15,7 C 12,2 C 86 % 1016,5 hPa 0,0 l/m 0 min 0 min 0 W/m 2,1 km/h (1 Bft)
17.10.2014 19:32 15,7 C 12,2 C 86 % 1016,4 hPa 0,0 l/m 0 min 0 min 0 W/m 4,2 km/h (1 Bft)
17.10.2014 19:34 15,7 C 12,2 C 86 % 1016,4 hPa 0,0 l/m 0 min 0 min 0 W/m 6,3 km/h (2 Bft)
17.10.2014 19:36 15,6 C 12,2 C 87 % 1016,3 hPa 0,0 l/m 0 min 0 min 0 W/m 6,3 km/h (2 Bft)
17.10.2014 19:38 15,6 C 12,2 C 87 % 1016,4 hPa 0,0 l/m 0 min 0 min 0 W/m 6,3 km/h (2 Bft)
17.10.2014 19:40 15,5 C 12,2 C 87 % 1016,4 hPa 0,0 l/m 0 min 0 min 0 W/m 6,3 km/h (2 Bft)
17.10.2014 19:42 15,4 C 12,2 C 87 % 1016,5 hPa 0,0 l/m 0 min 0 min 0 W/m 6,3 km/h (2 Bft)
17.10.2014 19:44 15,4 C 12,2 C 87 % 1016,4 hPa 0,0 l/m 0 min 0 min 0 W/m 6,3 km/h (2 Bft)
17.10.2014 19:46 15,3 C 12,2 C 87 % 1016,4 hPa 0,0 l/m 0 min 0 min 0 W/m 6,3 km/h (2 Bft)
17.10.2014 19:48 15,3 C 12,2 C 87 % 1016,4 hPa 0,0 l/m 0 min 0 min 0 W/m 8,4 km/h (2 Bft)
17.10.2014 19:50 15,2 C 12,2 C 87 % 1016,4 hPa 0,0 l/m 0 min 0 min 0 W/m 8,4 km/h (2 Bft)
17.10.2014 19:52 15,2 C 12,2 C 88 % 1016,4 hPa 0,0 l/m 0 min 0 min 0 W/m 8,4 km/h (2 Bft)
17.10.2014 19:54 15,2 C 12,2 C 88 % 1016,5 hPa 0,0 l/m 0 min 0 min 0 W/m 6,3 km/h (2 Bft)
17.10.2014 19:56 15,1 C 12,2 C 88 % 1016,6 hPa 0,0 l/m 0 min 0 min 0 W/m 4,2 km/h (1 Bft)
17.10.2014 19:58 15,1 C 12,2 C 88 % 1016,6 hPa 0,0 l/m 0 min 0 min 0 W/m 6,3 km/h (2 Bft)
17.10.2014 20:00 15,0 C 12,2 C 88 % 1016,7 hPa 0,0 l/m 0 min 0 min 0 W/m 8,4 km/h (2 Bft)
17.10.2014 20:02 14,9 C 12,2 C 88 % 1016,7 hPa 0,0 l/m 0 min 0 min 0 W/m 8,4 km/h (2 Bft)
17.10.2014 20:04 14,9 C 12,2 C 88 % 1016,8 hPa 0,0 l/m 0 min 0 min 0 W/m 8,4 km/h (2 Bft)
17.10.2014 20:06 14,8 C 12,2 C 88 % 1016,8 hPa 0,0 l/m 0 min 0 min 0 W/m 8,4 km/h (2 Bft)
17.10.2014 20:08 14,8 C 12,2 C 89 % 1016,9 hPa 0,0 l/m 0 min 0 min 0 W/m 6,3 km/h (2 Bft)
17.10.2014 20:10 14,7 C 12,2 C 88 % 1016,8 hPa 0,0 l/m 0 min 0 min 0 W/m 8,4 km/h (2 Bft)
17.10.2014 20:12 14,7 C 12,2 C 89 % 1016,7 hPa 0,0 l/m 0 min 0 min 0 W/m 12,6 km/h (3 Bft)
17.10.2014 20:14 14,7 C 12,2 C 89 % 1016,8 hPa 0,0 l/m 0 min 0 min 0 W/m 6,3 km/h (2 Bft)
17.10.2014 20:16 14,6 C 12,2 C 89 % 1016,8 hPa 0,0 l/m 0 min 0 min 0 W/m 8,4 km/h (2 Bft)
17.10.2014 20:18 14,6 C 12,2 C 89 % 1016,8 hPa 0,0 l/m 0 min 0 min 0 W/m 12,6 km/h (3 Bft)
17.10.2014 20:20 14,5 C 12,2 C 89 % 1016,8 hPa 0,0 l/m 0 min 0 min 0 W/m 8,4 km/h (2 Bft)
17.10.2014 20:22 14,5 C 12,2 C 89 % 1016,8 hPa 0,0 l/m 0 min 0 min 0 W/m 8,4 km/h (2 Bft)
17.10.2014 20:24 14,4 C 12,2 C 89 % 1016,8 hPa 0,0 l/m 0 min 0 min 0 W/m 8,4 km/h (2 Bft)
17.10.2014 20:26 14,4 C 12,2 C 90 % 1016,8 hPa 0,0 l/m 0 min 0 min 0 W/m 6,3 km/h (2 Bft)
17.10.2014 20:28 14,4 C 12,2 C 90 % 1016,8 hPa 0,0 l/m 0 min 0 min 0 W/m 6,3 km/h (2 Bft)
17.10.2014 20:30 14,3 C 12,2 C 90 % 1016,7 hPa 0,0 l/m 0 min 0 min 0 W/m 6,3 km/h (2 Bft)
17.10.2014 20:32 14,3 C 12,2 C 90 % 1016,7 hPa 0,0 l/m 0 min 0 min 0 W/m 6,3 km/h (2 Bft)
17.10.2014 20:34 14,2 C 12,2 C 90 % 1016,8 hPa 0,0 l/m 0 min 0 min 0 W/m 6,3 km/h (2 Bft)
17.10.2014 20:36 14,2 C 11,7 C 90 % 1016,8 hPa 0,0 l/m 0 min 0 min 0 W/m 6,3 km/h (2 Bft)
17.10.2014 20:38 14,2 C 11,7 C 90 % 1016,8 hPa 0,0 l/m 0 min 0 min 0 W/m 6,3 km/h (2 Bft)
17.10.2014 20:40 14,2 C 11,7 C 90 % 1016,8 hPa 0,0 l/m 0 min 0 min 0 W/m 8,4 km/h (2 Bft)
17.10.2014 20:42 14,2 C 11,7 C 91 % 1016,8 hPa 0,0 l/m 0 min 0 min 0 W/m 6,3 km/h (2 Bft)
17.10.2014 20:44 14,2 C 11,7 C 91 % 1016,9 hPa 0,0 l/m 0 min 0 min 0 W/m 6,3 km/h (2 Bft)
17.10.2014 20:46 14,2 C 11,7 C 91 % 1016,9 hPa 0,0 l/m 0 min 0 min 0 W/m 6,3 km/h (2 Bft)
17.10.2014 20:48 14,2 C 11,7 C 91 % 1017,0 hPa 0,0 l/m 0 min 0 min 0 W/m 4,2 km/h (1 Bft)
17.10.2014 20:50 14,2 C 11,7 C 91 % 1017,0 hPa 0,0 l/m 0 min 0 min 0 W/m 6,3 km/h (2 Bft)
17.10.2014 20:52 14,1 C 11,7 C 91 % 1017,0 hPa 0,0 l/m 0 min 0 min 0 W/m 6,3 km/h (2 Bft)
17.10.2014 20:54 14,1 C 11,7 C 91 % 1017,1 hPa 0,0 l/m 0 min 0 min 0 W/m 4,2 km/h (1 Bft)
17.10.2014 20:56 14,0 C 11,7 C 91 % 1017,0 hPa 0,0 l/m 0 min 0 min 0 W/m 6,3 km/h (2 Bft)
17.10.2014 20:58 14,0 C 11,7 C 91 % 1017,1 hPa 0,0 l/m 0 min 0 min 0 W/m 6,3 km/h (2 Bft)
17.10.2014 21:00 13,9 C 11,7 C 91 % 1017,0 hPa 0,0 l/m 0 min 0 min 0 W/m 4,2 km/h (1 Bft)
17.10.2014 21:02 13,9 C 11,7 C 91 % 1017,0 hPa 0,0 l/m 0 min 0 min 0 W/m 6,3 km/h (2 Bft)
17.10.2014 21:04 13,9 C 11,7 C 91 % 1017,0 hPa 0,0 l/m 0 min 0 min 0 W/m 4,2 km/h (1 Bft)
17.10.2014 21:06 13,9 C 11,7 C 91 % 1017,0 hPa 0,0 l/m 0 min 0 min 0 W/m 4,2 km/h (1 Bft)
17.10.2014 21:08 13,8 C 11,7 C 91 % 1017,2 hPa 0,0 l/m 0 min 0 min 0 W/m 6,3 km/h (2 Bft)
17.10.2014 21:10 13,8 C 11,7 C 91 % 1017,2 hPa 0,0 l/m 0 min 0 min 0 W/m 6,3 km/h (2 Bft)
17.10.2014 21:12 13,8 C 11,7 C 91 % 1017,2 hPa 0,0 l/m 0 min 0 min 0 W/m 6,3 km/h (2 Bft)
17.10.2014 21:14 13,7 C 11,7 C 91 % 1017,2 hPa 0,0 l/m 0 min 0 min 0 W/m 6,3 km/h (2 Bft)
17.10.2014 21:16 13,7 C 11,7 C 92 % 1017,2 hPa 0,0 l/m 0 min 0 min 0 W/m 6,3 km/h (2 Bft)
17.10.2014 21:18 13,7 C 11,1 C 92 % 1017,2 hPa 0,0 l/m 0 min 0 min 0 W/m 8,4 km/h (2 Bft)
17.10.2014 21:20 13,7 C 11,1 C 92 % 1017,2 hPa 0,0 l/m 0 min 0 min 0 W/m 6,3 km/h (2 Bft)
17.10.2014 21:22 13,6 C 11,1 C 92 % 1017,2 hPa 0,0 l/m 0 min 0 min 0 W/m 8,4 km/h (2 Bft)
17.10.2014 21:24 13,6 C 11,1 C 91 % 1017,2 hPa 0,0 l/m 0 min 0 min 0 W/m 8,4 km/h (2 Bft)
17.10.2014 21:26 13,6 C 11,1 C 92 % 1017,2 hPa 0,0 l/m 0 min 0 min 0 W/m 8,4 km/h (2 Bft)
17.10.2014 21:28 13,5 C 11,1 C 92 % 1017,3 hPa 0,0 l/m 0 min 0 min 0 W/m 8,4 km/h (2 Bft)
17.10.2014 21:30 13,5 C 11,1 C 92 % 1017,3 hPa 0,0 l/m 0 min 0 min 0 W/m 8,4 km/h (2 Bft)
17.10.2014 21:32 13,5 C 11,7 C 92 % 1017,3 hPa 0,0 l/m 0 min 0 min 0 W/m 8,4 km/h (2 Bft)
17.10.2014 21:34 13,4 C 11,7 C 92 % 1017,3 hPa 0,0 l/m 0 min 0 min 0 W/m 8,4 km/h (2 Bft)
17.10.2014 21:36 13,4 C 11,7 C 92 % 1017,3 hPa 0,0 l/m 0 min 0 min 0 W/m 6,3 km/h (2 Bft)
17.10.2014 21:38 13,4 C 11,7 C 92 % 1017,3 hPa 0,0 l/m 0 min 0 min 0 W/m 8,4 km/h (2 Bft)
17.10.2014 21:40 13,4 C 11,7 C 92 % 1017,3 hPa 0,0 l/m 0 min 0 min 0 W/m 10,5 km/h (2 Bft)
17.10.2014 21:42 13,4 C 11,7 C 92 % 1017,3 hPa 0,0 l/m 0 min 0 min 0 W/m 8,4 km/h (2 Bft)
17.10.2014 21:44 13,3 C 11,7 C 92 % 1017,4 hPa 0,0 l/m 0 min 0 min 0 W/m 8,4 km/h (2 Bft)
17.10.2014 21:46 13,3 C 11,7 C 92 % 1017,4 hPa 0,0 l/m 0 min 0 min 0 W/m 8,4 km/h (2 Bft)
17.10.2014 21:48 13,3 C 11,7 C 92 % 1017,3 hPa 0,0 l/m 0 min 0 min 0 W/m 8,4 km/h (2 Bft)
17.10.2014 21:50 13,3 C 11,7 C 92 % 1017,3 hPa 0,0 l/m 0 min 0 min 0 W/m 10,5 km/h (2 Bft)
17.10.2014 21:52 13,3 C 11,7 C 92 % 1017,4 hPa 0,0 l/m 0 min 0 min 0 W/m 6,3 km/h (2 Bft)
17.10.2014 21:54 13,3 C 11,7 C 92 % 1017,4 hPa 0,0 l/m 0 min 0 min 0 W/m 6,3 km/h (2 Bft)
17.10.2014 21:56 13,3 C 11,7 C 93 % 1017,4 hPa 0,0 l/m 0 min 0 min 0 W/m 8,4 km/h (2 Bft)
17.10.2014 21:58 13,2 C 11,7 C 93 % 1017,4 hPa 0,0 l/m 0 min 0 min 0 W/m 10,5 km/h (2 Bft)
17.10.2014 22:00 13,2 C 11,7 C 93 % 1017,4 hPa 0,0 l/m 0 min 0 min 0 W/m 12,6 km/h (3 Bft)
17.10.2014 22:02 13,2 C 11,7 C 93 % 1017,4 hPa 0,0 l/m 0 min 0 min 0 W/m 10,5 km/h (2 Bft)
17.10.2014 22:04 13,2 C 11,7 C 93 % 1017,4 hPa 0,0 l/m 0 min 0 min 0 W/m 10,5 km/h (2 Bft)
17.10.2014 22:06 13,2 C 11,7 C 93 % 1017,4 hPa 0,0 l/m 0 min 0 min 0 W/m 8,4 km/h (2 Bft)
17.10.2014 22:08 13,2 C 11,7 C 93 % 1017,5 hPa 0,0 l/m 0 min 0 min 0 W/m 10,5 km/h (2 Bft)
17.10.2014 22:10 13,2 C 11,7 C 93 % 1017,5 hPa 0,0 l/m 0 min 0 min 0 W/m 10,5 km/h (2 Bft)
17.10.2014 22:12 13,2 C 11,7 C 93 % 1017,5 hPa 0,0 l/m 0 min 0 min 0 W/m 10,5 km/h (2 Bft)
17.10.2014 22:14 13,2 C 11,7 C 93 % 1017,5 hPa 0,0 l/m 0 min 0 min 0 W/m 10,5 km/h (2 Bft)
17.10.2014 22:16 13,2 C 11,7 C 93 % 1017,4 hPa 0,0 l/m 0 min 0 min 0 W/m 8,4 km/h (2 Bft)
17.10.2014 22:18 13,2 C 11,7 C 93 % 1017,4 hPa 0,0 l/m 0 min 0 min 0 W/m 10,5 km/h (2 Bft)
17.10.2014 22:20 13,2 C 11,7 C 94 % 1017,4 hPa 0,0 l/m 0 min 0 min 0 W/m 10,5 km/h (2 Bft)
17.10.2014 22:22 13,1 C 11,7 C 94 % 1017,4 hPa 0,0 l/m 0 min 0 min 0 W/m 8,4 km/h (2 Bft)
17.10.2014 22:24 13,1 C 11,7 C 94 % 1017,4 hPa 0,0 l/m 0 min 0 min 0 W/m 10,5 km/h (2 Bft)
17.10.2014 22:26 13,1 C 11,7 C 93 % 1017,5 hPa 0,0 l/m 0 min 0 min 0 W/m 12,6 km/h (3 Bft)
17.10.2014 22:28 13,1 C 11,7 C 93 % 1017,4 hPa 0,0 l/m 0 min 0 min 0 W/m 8,4 km/h (2 Bft)
17.10.2014 22:30 13,1 C 11,7 C 93 % 1017,5 hPa 0,0 l/m 0 min 0 min 0 W/m 6,3 km/h (2 Bft)
17.10.2014 22:32 13,1 C 11,7 C 94 % 1017,4 hPa 0,0 l/m 0 min 0 min 0 W/m 4,2 km/h (1 Bft)
17.10.2014 22:34 13,1 C 11,7 C 94 % 1017,4 hPa 0,0 l/m 0 min 0 min 0 W/m 6,3 km/h (2 Bft)
17.10.2014 22:36 13,1 C 11,1 C 94 % 1017,4 hPa 0,0 l/m 0 min 0 min 0 W/m 6,3 km/h (2 Bft)
17.10.2014 22:38 13,1 C 11,1 C 94 % 1017,4 hPa 0,0 l/m 0 min 0 min 0 W/m 8,4 km/h (2 Bft)
17.10.2014 22:40 13,1 C 11,1 C 94 % 1017,4 hPa 0,0 l/m 0 min 0 min 0 W/m 6,3 km/h (2 Bft)
17.10.2014 22:42 13,0 C 11,1 C 94 % 1017,4 hPa 0,0 l/m 0 min 0 min 0 W/m 8,4 km/h (2 Bft)
17.10.2014 22:44 13,0 C 11,1 C 94 % 1017,4 hPa 0,0 l/m 0 min 0 min 0 W/m 8,4 km/h (2 Bft)
17.10.2014 22:46 13,0 C 11,1 C 94 % 1017,4 hPa 0,0 l/m 0 min 0 min 0 W/m 8,4 km/h (2 Bft)
17.10.2014 22:48 12,9 C 11,1 C 94 % 1017,4 hPa 0,0 l/m 0 min 0 min 0 W/m 8,4 km/h (2 Bft)
17.10.2014 22:50 12,9 C 11,1 C 94 % 1017,5 hPa 0,0 l/m 0 min 0 min 0 W/m 8,4 km/h (2 Bft)
17.10.2014 22:52 12,9 C 11,1 C 94 % 1017,4 hPa 0,0 l/m 0 min 0 min 0 W/m 10,5 km/h (2 Bft)
17.10.2014 22:54 12,9 C 11,1 C 94 % 1017,5 hPa 0,0 l/m 0 min 0 min 0 W/m 14,6 km/h (3 Bft)
17.10.2014 22:56 12,9 C 11,1 C 94 % 1017,6 hPa 0,0 l/m 0 min 0 min 0 W/m 8,4 km/h (2 Bft)
17.10.2014 22:58 12,9 C 11,1 C 94 % 1017,6 hPa 0,0 l/m 0 min 0 min 0 W/m 6,3 km/h (2 Bft)
17.10.2014 23:00 12,9 C 11,1 C 94 % 1017,6 hPa 0,0 l/m 0 min 0 min 0 W/m 8,4 km/h (2 Bft)
17.10.2014 23:02 12,8 C 11,1 C 94 % 1017,5 hPa 0,0 l/m 0 min 0 min 0 W/m 8,4 km/h (2 Bft)
17.10.2014 23:04 12,8 C 11,1 C 94 % 1017,5 hPa 0,0 l/m 0 min 0 min 0 W/m 10,5 km/h (2 Bft)
17.10.2014 23:06 12,8 C 11,1 C 94 % 1017,6 hPa 0,0 l/m 0 min 0 min 0 W/m 6,3 km/h (2 Bft)
17.10.2014 23:08 12,8 C 11,1 C 94 % 1017,6 hPa 0,0 l/m 0 min 0 min 0 W/m 10,5 km/h (2 Bft)
17.10.2014 23:10 12,8 C 11,1 C 94 % 1017,5 hPa 0,0 l/m 0 min 0 min 0 W/m 6,3 km/h (2 Bft)
17.10.2014 23:12 12,8 C 11,1 C 94 % 1017,5 hPa 0,0 l/m 0 min 0 min 0 W/m 6,3 km/h (2 Bft)
17.10.2014 23:14 12,8 C 11,1 C 94 % 1017,5 hPa 0,0 l/m 0 min 0 min 0 W/m 8,4 km/h (2 Bft)
17.10.2014 23:16 12,8 C 11,1 C 94 % 1017,6 hPa 0,0 l/m 0 min 0 min 0 W/m 6,3 km/h (2 Bft)
17.10.2014 23:18 12,7 C 11,1 C 94 % 1017,6 hPa 0,0 l/m 0 min 0 min 0 W/m 6,3 km/h (2 Bft)
17.10.2014 23:20 12,7 C 11,1 C 94 % 1017,7 hPa 0,0 l/m 0 min 0 min 0 W/m 6,3 km/h (2 Bft)
17.10.2014 23:22 12,7 C 11,1 C 94 % 1017,7 hPa 0,0 l/m 0 min 0 min 0 W/m 6,3 km/h (2 Bft)
17.10.2014 23:24 12,7 C 11,1 C 94 % 1017,7 hPa 0,0 l/m 0 min 0 min 0 W/m 8,4 km/h (2 Bft)
17.10.2014 23:26 12,7 C 11,1 C 94 % 1017,7 hPa 0,0 l/m 0 min 0 min 0 W/m 8,4 km/h (2 Bft)
17.10.2014 23:28 12,7 C 11,1 C 94 % 1017,7 hPa 0,0 l/m 0 min 0 min 0 W/m 8,4 km/h (2 Bft)
17.10.2014 23:30 12,7 C 11,1 C 94 % 1017,8 hPa 0,0 l/m 0 min 0 min 0 W/m 8,4 km/h (2 Bft)
17.10.2014 23:32 12,7 C 11,1 C 94 % 1017,7 hPa 0,0 l/m 0 min 0 min 0 W/m 8,4 km/h (2 Bft)
17.10.2014 23:34 12,6 C 11,1 C 94 % 1017,7 hPa 0,0 l/m 0 min 0 min 0 W/m 6,3 km/h (2 Bft)
17.10.2014 23:36 12,6 C 11,1 C 94 % 1017,8 hPa 0,0 l/m 0 min 0 min 0 W/m 6,3 km/h (2 Bft)
17.10.2014 23:38 12,6 C 11,1 C 94 % 1017,8 hPa 0,0 l/m 0 min 0 min 0 W/m 6,3 km/h (2 Bft)
17.10.2014 23:40 12,6 C 11,1 C 94 % 1017,8 hPa 0,0 l/m 0 min 0 min 0 W/m 6,3 km/h (2 Bft)
17.10.2014 23:42 12,6 C 11,1 C 94 % 1017,9 hPa 0,0 l/m 0 min 0 min 0 W/m 6,3 km/h (2 Bft)
17.10.2014 23:44 12,6 C 10,6 C 94 % 1017,8 hPa 0,0 l/m 0 min 0 min 0 W/m 6,3 km/h (2 Bft)
17.10.2014 23:46 12,5 C 10,6 C 94 % 1017,9 hPa 0,0 l/m 0 min 0 min 0 W/m 4,2 km/h (1 Bft)
17.10.2014 23:48 12,5 C 10,6 C 94 % 1017,9 hPa 0,0 l/m 0 min 0 min 0 W/m 6,3 km/h (2 Bft)
17.10.2014 23:50 12,5 C 10,6 C 94 % 1017,9 hPa 0,0 l/m 0 min 0 min 0 W/m 6,3 km/h (2 Bft)
17.10.2014 23:52 12,5 C 10,6 C 94 % 1017,9 hPa 0,0 l/m 0 min 0 min 0 W/m 4,2 km/h (1 Bft)
17.10.2014 23:54 12,4 C 10,6 C 94 % 1017,9 hPa 0,0 l/m 0 min 0 min 0 W/m 8,4 km/h (2 Bft)
17.10.2014 23:56 12,4 C 10,6 C 94 % 1018,0 hPa 0,0 l/m 0 min 0 min 0 W/m 6,3 km/h (2 Bft)
17.10.2014 23:58 12,4 C 10,6 C 94 % 1018,0 hPa 0,0 l/m 0 min 0 min 0 W/m 6,3 km/h (2 Bft)
_ Min-Zeit 23:54 23:44 16:14 02:56 - - - - 02:30
Minimum _ 12,4 C 10,6 C 75 % 1006,4 hPa - - - - 2,1 km/h (1 Bft)
_ Max-Zeit 16:00 14:44 08:40 23:56 10:08 09:22 01:08 13:14 13:16
Maximum _ 19,8 C 17,2 C 98 % 1018,0 hPa 0,6 l/m 2 min 2 min 708 W/m 37,7 km/h
W-SW (5 Bft)
Durchschnitt _ 15,2 C 13,2 C 91 % 1012,3 hPa #2,6 l/m #5:52 h #2:28 h 210 W/m 11,7 km/h (2 Bft)
© 2014 W. Hausmann